PWSweather.com
Personal Weather Stations
Station Observations

GerenaES 41860

Lat: 37.530965, Lon: -6.150384

Elevation: 120

Station Type: Vantage VUE

http://meteogerena.blogspot.com.es/

High Low Average
Temperature 59.0°F15.0°C 50.2°F10.1°C 54.2°F12.3°C
Dew Point 54.2°F12.3°C 47.4°F8.6°C 50.3°F10.2°C
Winds 5.0 mph 8.0 kmh Calm Calm 1.0 mph SE1.6 kmh SE
Wind Gusts 11.0 mph17.7 kmh -- 3.0 mph4.8 kmh
Humidity 91% 80% 87%
Pressure 30.02 in1016.6 mb 29.95 in1014.2 mb -
Precipitation 0.91 in23.1 mm - -
Hour Temp Dew Point Humidity Winds Wind Gusts Pressure Precip Precip Rate Daily Precip Total
12:00 AM 53.8°F12.1°C 48.7°F9.3°C 83% Calm Calm 1.0 mph1.6 kmh 29.98 in1015.2 mb 0.00 in0.0 mm 0.00 in0.0 mm 0.00 in0.0 mm
12:01 AM 53.8°F12.1°C 48.7°F9.3°C 83% Calm Calm -- 29.98 in1015.2 mb 0.00 in0.0 mm 0.00 in0.0 mm 0.00 in0.0 mm
12:02 AM 54.0°F12.2°C 48.9°F9.4°C 83% Calm Calm -- 29.98 in1015.2 mb 0.00 in0.0 mm 0.00 in0.0 mm 0.00 in0.0 mm
12:03 AM 54.0°F12.2°C 48.9°F9.4°C 83% Calm Calm -- 29.98 in1015.2 mb 0.00 in0.0 mm 0.00 in0.0 mm 0.00 in0.0 mm
12:04 AM 54.0°F12.2°C 48.9°F9.4°C 83% Calm Calm -- 29.98 in1015.2 mb 0.00 in0.0 mm 0.00 in0.0 mm 0.00 in0.0 mm
12:05 AM 54.0°F12.2°C 48.9°F9.4°C 83% Calm Calm -- 29.98 in1015.2 mb 0.00 in0.0 mm 0.00 in0.0 mm 0.00 in0.0 mm
12:06 AM 54.0°F12.2°C 48.9°F9.4°C 83% Calm Calm -- 29.98 in1015.2 mb 0.00 in0.0 mm 0.00 in0.0 mm 0.00 in0.0 mm
12:07 AM 54.1°F12.3°C 49.1°F9.5°C 83% Calm Calm -- 29.98 in1015.2 mb 0.00 in0.0 mm 0.00 in0.0 mm 0.00 in0.0 mm
12:08 AM 54.1°F12.3°C 48.8°F9.3°C 82% Calm Calm -- 29.98 in1015.2 mb 0.00 in0.0 mm 0.00 in0.0 mm 0.00 in0.0 mm
12:09 AM 54.1°F12.3°C 48.8°F9.3°C 82% Calm Calm -- 29.98 in1015.2 mb 0.00 in0.0 mm 0.00 in0.0 mm 0.00 in0.0 mm
12:10 AM 54.3°F12.4°C 48.9°F9.4°C 82% Calm Calm -- 29.98 in1015.2 mb 0.00 in0.0 mm 0.00 in0.0 mm 0.00 in0.0 mm
12:11 AM 54.3°F12.4°C 48.9°F9.4°C 82% Calm Calm -- 29.98 in1015.2 mb 0.00 in0.0 mm 0.00 in0.0 mm 0.00 in0.0 mm
12:12 AM 54.3°F12.4°C 48.6°F9.2°C 81% Calm Calm -- 29.98 in1015.2 mb 0.00 in0.0 mm 0.00 in0.0 mm 0.00 in0.0 mm
12:13 AM 54.5°F12.5°C 48.8°F9.3°C 81% Calm Calm -- 29.98 in1015.2 mb 0.00 in0.0 mm 0.00 in0.0 mm 0.00 in0.0 mm
12:14 AM 54.5°F12.5°C 48.8°F9.3°C 81% Calm Calm -- 29.98 in1015.2 mb 0.00 in0.0 mm 0.00 in0.0 mm 0.00 in0.0 mm
12:15 AM 54.7°F12.6°C 49.0°F9.4°C 81% Calm Calm -- 29.97 in1014.9 mb 0.00 in0.0 mm 0.00 in0.0 mm 0.00 in0.0 mm
12:16 AM 54.7°F12.6°C 49.0°F9.4°C 81% Calm Calm 1.0 mph1.6 kmh 29.97 in1014.9 mb 0.00 in0.0 mm 0.00 in0.0 mm 0.00 in0.0 mm
12:17 AM 54.7°F12.6°C 49.0°F9.4°C 81% Calm Calm 1.0 mph1.6 kmh 29.97 in1014.9 mb 0.00 in0.0 mm 0.00 in0.0 mm 0.00 in0.0 mm
12:18 AM 54.7°F12.6°C 49.0°F9.4°C 81% Calm Calm 1.0 mph1.6 kmh 29.97 in1014.9 mb 0.00 in0.0 mm 0.00 in0.0 mm 0.00 in0.0 mm
12:19 AM 54.7°F12.6°C 49.0°F9.4°C 81% Calm Calm 1.0 mph1.6 kmh 29.97 in1014.9 mb 0.00 in0.0 mm 0.00 in0.0 mm 0.00 in0.0 mm
12:20 AM 54.9°F12.7°C 49.1°F9.5°C 81% Calm Calm 1.0 mph1.6 kmh 29.97 in1014.9 mb 0.00 in0.0 mm 0.00 in0.0 mm 0.00 in0.0 mm
12:21 AM 54.9°F12.7°C 49.1°F9.5°C 81% Calm Calm 1.0 mph1.6 kmh 29.98 in1015.2 mb 0.00 in0.0 mm 0.00 in0.0 mm 0.00 in0.0 mm
12:22 AM 54.9°F12.7°C 49.1°F9.5°C 81% Calm Calm 1.0 mph1.6 kmh 29.97 in1014.9 mb 0.00 in0.0 mm 0.00 in0.0 mm 0.00 in0.0 mm
12:23 AM 54.7°F12.6°C 49.0°F9.4°C 81% Calm Calm 1.0 mph1.6 kmh 29.97 in1014.9 mb 0.00 in0.0 mm 0.00 in0.0 mm 0.00 in0.0 mm
12:24 AM 54.7°F12.6°C 49.0°F9.4°C 81% Calm Calm 1.0 mph1.6 kmh 29.98 in1015.2 mb 0.00 in0.0 mm 0.00 in0.0 mm 0.00 in0.0 mm
12:25 AM 54.7°F12.6°C 49.0°F9.4°C 81% Calm Calm 1.0 mph1.6 kmh 29.97 in1014.9 mb 0.00 in0.0 mm 0.00 in0.0 mm 0.00 in0.0 mm
12:26 AM 54.7°F12.6°C 49.0°F9.4°C 81% Calm Calm 1.0 mph1.6 kmh 29.98 in1015.2 mb 0.00 in0.0 mm 0.00 in0.0 mm 0.00 in0.0 mm
12:27 AM 54.5°F12.5°C 49.1°F9.5°C 82% Calm Calm 1.0 mph1.6 kmh 29.97 in1014.9 mb 0.00 in0.0 mm 0.00 in0.0 mm 0.00 in0.0 mm
12:28 AM 54.3°F12.4°C 48.9°F9.4°C 82% Calm Calm -- 29.97 in1014.9 mb 0.00 in0.0 mm 0.00 in0.0 mm 0.00 in0.0 mm
12:29 AM 54.3°F12.4°C 48.9°F9.4°C 82% Calm Calm -- 29.97 in1014.9 mb 0.00 in0.0 mm 0.00 in0.0 mm 0.00 in0.0 mm
12:30 AM 54.3°F12.4°C 48.9°F9.4°C 82% Calm Calm -- 29.97 in1014.9 mb 0.00 in0.0 mm 0.00 in0.0 mm 0.00 in0.0 mm
12:31 AM 54.1°F12.3°C 48.8°F9.3°C 82% Calm Calm -- 29.97 in1014.9 mb 0.00 in0.0 mm 0.00 in0.0 mm 0.00 in0.0 mm
12:32 AM 54.1°F12.3°C 48.8°F9.3°C 82% Calm Calm -- 29.97 in1014.9 mb 0.00 in0.0 mm 0.00 in0.0 mm 0.00 in0.0 mm
12:33 AM 54.0°F12.2°C 48.6°F9.2°C 82% Calm Calm -- 29.97 in1014.9 mb 0.00 in0.0 mm 0.00 in0.0 mm 0.00 in0.0 mm
12:34 AM 54.0°F12.2°C 48.6°F9.2°C 82% Calm Calm -- 29.97 in1014.9 mb 0.00 in0.0 mm 0.00 in0.0 mm 0.00 in0.0 mm
12:35 AM 53.8°F12.1°C 48.4°F9.1°C 82% Calm Calm -- 29.97 in1014.9 mb 0.00 in0.0 mm 0.00 in0.0 mm 0.00 in0.0 mm
12:36 AM 53.8°F12.1°C 48.7°F9.3°C 83% Calm Calm -- 29.97 in1014.9 mb 0.00 in0.0 mm 0.00 in0.0 mm 0.00 in0.0 mm
12:37 AM 53.8°F12.1°C 48.7°F9.3°C 83% Calm Calm -- 29.97 in1014.9 mb 0.00 in0.0 mm 0.00 in0.0 mm 0.00 in0.0 mm
12:38 AM 53.6°F12.0°C 48.6°F9.2°C 83% Calm Calm -- 29.97 in1014.9 mb 0.00 in0.0 mm 0.00 in0.0 mm 0.00 in0.0 mm
12:39 AM 53.6°F12.0°C 48.6°F9.2°C 83% Calm Calm -- 29.97 in1014.9 mb 0.00 in0.0 mm 0.00 in0.0 mm 0.00 in0.0 mm
12:40 AM 53.4°F11.9°C 48.7°F9.3°C 84% Calm Calm -- 29.97 in1014.9 mb 0.00 in0.0 mm 0.00 in0.0 mm 0.00 in0.0 mm
12:41 AM 53.4°F11.9°C 48.7°F9.3°C 84% Calm Calm -- 29.97 in1014.9 mb 0.00 in0.0 mm 0.00 in0.0 mm 0.00 in0.0 mm
12:42 AM 53.2°F11.8°C 48.5°F9.2°C 84% Calm Calm -- 29.97 in1014.9 mb 0.00 in0.0 mm 0.00 in0.0 mm 0.00 in0.0 mm
12:43 AM 53.2°F11.8°C 48.5°F9.2°C 84% Calm Calm -- 29.97 in1014.9 mb 0.00 in0.0 mm 0.00 in0.0 mm 0.00 in0.0 mm
12:44 AM 53.2°F11.8°C 48.5°F9.2°C 84% Calm Calm -- 29.97 in1014.9 mb 0.00 in0.0 mm 0.00 in0.0 mm 0.00 in0.0 mm
12:45 AM 53.2°F11.8°C 48.5°F9.2°C 84% Calm Calm -- 29.97 in1014.9 mb 0.00 in0.0 mm 0.00 in0.0 mm 0.00 in0.0 mm
12:46 AM 53.2°F11.8°C 48.5°F9.2°C 84% Calm Calm -- 29.97 in1014.9 mb 0.00 in0.0 mm 0.00 in0.0 mm 0.00 in0.0 mm
12:47 AM 53.2°F11.8°C 48.5°F9.2°C 84% Calm Calm -- 29.97 in1014.9 mb 0.00 in0.0 mm 0.00 in0.0 mm 0.00 in0.0 mm
12:48 AM 53.1°F11.7°C 48.7°F9.3°C 85% Calm Calm -- 29.97 in1014.9 mb 0.00 in0.0 mm 0.00 in0.0 mm 0.00 in0.0 mm
12:49 AM 53.1°F11.7°C 48.7°F9.3°C 85% Calm Calm -- 29.97 in1014.9 mb 0.00 in0.0 mm 0.00 in0.0 mm 0.00 in0.0 mm
12:50 AM 53.1°F11.7°C 48.7°F9.3°C 85% Calm Calm -- 29.97 in1014.9 mb 0.00 in0.0 mm 0.00 in0.0 mm 0.00 in0.0 mm
12:51 AM 53.1°F11.7°C 48.7°F9.3°C 85% Calm Calm -- 29.97 in1014.9 mb 0.00 in0.0 mm 0.00 in0.0 mm 0.00 in0.0 mm
12:52 AM 53.1°F11.7°C 48.7°F9.3°C 85% Calm Calm -- 29.97 in1014.9 mb 0.00 in0.0 mm 0.00 in0.0 mm 0.00 in0.0 mm
12:53 AM 53.1°F11.7°C 48.7°F9.3°C 85% Calm Calm -- 29.97 in1014.9 mb 0.00 in0.0 mm 0.00 in0.0 mm 0.00 in0.0 mm
12:54 AM 53.1°F11.7°C 48.7°F9.3°C 85% Calm Calm -- 29.97 in1014.9 mb 0.00 in0.0 mm 0.00 in0.0 mm 0.00 in0.0 mm
12:55 AM 53.1°F11.7°C 48.7°F9.3°C 85% Calm Calm -- 29.97 in1014.9 mb 0.00 in0.0 mm 0.00 in0.0 mm 0.00 in0.0 mm
12:56 AM 53.1°F11.7°C 48.7°F9.3°C 85% Calm Calm -- 29.97 in1014.9 mb 0.00 in0.0 mm 0.00 in0.0 mm 0.00 in0.0 mm
12:57 AM 53.1°F11.7°C 48.7°F9.3°C 85% Calm Calm -- 29.97 in1014.9 mb 0.00 in0.0 mm 0.00 in0.0 mm 0.00 in0.0 mm
12:58 AM 53.1°F11.7°C 48.7°F9.3°C 85% Calm Calm -- 29.97 in1014.9 mb 0.00 in0.0 mm 0.00 in0.0 mm 0.00 in0.0 mm
12:59 AM 53.1°F11.7°C 48.7°F9.3°C 85% Calm Calm -- 29.97 in1014.9 mb 0.00 in0.0 mm 0.00 in0.0 mm 0.00 in0.0 mm
01:00 AM 53.1°F11.7°C 48.7°F9.3°C 85% Calm Calm -- 29.97 in1014.9 mb 0.00 in0.0 mm 0.00 in0.0 mm 0.00 in0.0 mm
01:01 AM 53.1°F11.7°C 48.7°F9.3°C 85% Calm Calm -- 29.97 in1014.9 mb 0.00 in0.0 mm 0.00 in0.0 mm 0.00 in0.0 mm
01:02 AM 53.1°F11.7°C 48.7°F9.3°C 85% Calm Calm -- 29.97 in1014.9 mb 0.00 in0.0 mm 0.00 in0.0 mm 0.00 in0.0 mm
01:03 AM 53.1°F11.7°C 48.7°F9.3°C 85% Calm Calm -- 29.97 in1014.9 mb 0.00 in0.0 mm 0.00 in0.0 mm 0.00 in0.0 mm
01:04 AM 53.1°F11.7°C 48.7°F9.3°C 85% Calm Calm -- 29.97 in1014.9 mb 0.00 in0.0 mm 0.00 in0.0 mm 0.00 in0.0 mm
01:05 AM 53.1°F11.7°C 48.7°F9.3°C 85% Calm Calm 1.0 mph1.6 kmh 29.97 in1014.9 mb 0.00 in0.0 mm 0.00 in0.0 mm 0.00 in0.0 mm
01:06 AM 52.9°F11.6°C 48.5°F9.2°C 85% Calm Calm 1.0 mph1.6 kmh 29.97 in1014.9 mb 0.00 in0.0 mm 0.00 in0.0 mm 0.00 in0.0 mm
01:07 AM 52.9°F11.6°C 48.5°F9.2°C 85% Calm Calm 1.0 mph1.6 kmh 29.97 in1014.9 mb 0.00 in0.0 mm 0.00 in0.0 mm 0.00 in0.0 mm
01:08 AM 52.9°F11.6°C 48.5°F9.2°C 85% Calm Calm 1.0 mph1.6 kmh 29.97 in1014.9 mb 0.00 in0.0 mm 0.00 in0.0 mm 0.00 in0.0 mm
01:09 AM 52.9°F11.6°C 48.5°F9.2°C 85% Calm Calm 1.0 mph1.6 kmh 29.97 in1014.9 mb 0.00 in0.0 mm 0.00 in0.0 mm 0.00 in0.0 mm
01:10 AM 52.9°F11.6°C 48.5°F9.2°C 85% Calm Calm 1.0 mph1.6 kmh 29.97 in1014.9 mb 0.00 in0.0 mm 0.00 in0.0 mm 0.00 in0.0 mm
01:11 AM 52.9°F11.6°C 48.5°F9.2°C 85% Calm Calm 1.0 mph1.6 kmh 29.97 in1014.9 mb 0.00 in0.0 mm 0.00 in0.0 mm 0.00 in0.0 mm
01:12 AM 52.9°F11.6°C 48.5°F9.2°C 85% Calm Calm 1.0 mph1.6 kmh 29.97 in1014.9 mb 0.00 in0.0 mm 0.00 in0.0 mm 0.00 in0.0 mm
01:13 AM 52.9°F11.6°C 48.5°F9.2°C 85% Calm Calm 1.0 mph1.6 kmh 29.97 in1014.9 mb 0.00 in0.0 mm 0.00 in0.0 mm 0.00 in0.0 mm
01:14 AM 52.9°F11.6°C 48.5°F9.2°C 85% Calm Calm 1.0 mph1.6 kmh 29.97 in1014.9 mb 0.00 in0.0 mm 0.00 in0.0 mm 0.00 in0.0 mm
01:15 AM 52.9°F11.6°C 48.5°F9.2°C 85% Calm Calm 1.0 mph1.6 kmh 29.97 in1014.9 mb 0.00 in0.0 mm 0.00 in0.0 mm 0.00 in0.0 mm
01:16 AM 52.9°F11.6°C 48.5°F9.2°C 85% Calm Calm 1.0 mph1.6 kmh 29.97 in1014.9 mb 0.00 in0.0 mm 0.00 in0.0 mm 0.00 in0.0 mm
01:17 AM 52.9°F11.6°C 48.5°F9.2°C 85% Calm Calm 1.0 mph1.6 kmh 29.97 in1014.9 mb 0.00 in0.0 mm 0.00 in0.0 mm 0.00 in0.0 mm
01:18 AM 52.9°F11.6°C 48.5°F9.2°C 85% Calm Calm -- 29.97 in1014.9 mb 0.00 in0.0 mm 0.00 in0.0 mm 0.00 in0.0 mm
01:19 AM 52.9°F11.6°C 48.5°F9.2°C 85% Calm Calm -- 29.97 in1014.9 mb 0.00 in0.0 mm 0.00 in0.0 mm 0.00 in0.0 mm
01:20 AM 52.9°F11.6°C 48.5°F9.2°C 85% Calm Calm -- 29.97 in1014.9 mb 0.00 in0.0 mm 0.00 in0.0 mm 0.00 in0.0 mm
01:21 AM 52.9°F11.6°C 48.5°F9.2°C 85% Calm Calm -- 29.97 in1014.9 mb 0.00 in0.0 mm 0.00 in0.0 mm 0.00 in0.0 mm
01:22 AM 52.9°F11.6°C 48.5°F9.2°C 85% Calm Calm -- 29.97 in1014.9 mb 0.00 in0.0 mm 0.00 in0.0 mm 0.00 in0.0 mm
01:23 AM 52.9°F11.6°C 48.5°F9.2°C 85% Calm Calm 1.0 mph1.6 kmh 29.97 in1014.9 mb 0.00 in0.0 mm 0.00 in0.0 mm 0.00 in0.0 mm
01:24 AM 52.9°F11.6°C 48.5°F9.2°C 85% Calm Calm 1.0 mph1.6 kmh 29.97 in1014.9 mb 0.00 in0.0 mm 0.00 in0.0 mm 0.00 in0.0 mm
01:25 AM 52.9°F11.6°C 48.5°F9.2°C 85% Calm Calm 1.0 mph1.6 kmh 29.97 in1014.9 mb 0.00 in0.0 mm 0.00 in0.0 mm 0.00 in0.0 mm
01:26 AM 52.7°F11.5°C 48.3°F9.1°C 85% Calm Calm 1.0 mph1.6 kmh 29.97 in1014.9 mb 0.00 in0.0 mm 0.00 in0.0 mm 0.00 in0.0 mm
01:27 AM 52.7°F11.5°C 48.3°F9.1°C 85% Calm Calm 1.0 mph1.6 kmh 29.97 in1014.9 mb 0.00 in0.0 mm 0.00 in0.0 mm 0.00 in0.0 mm
01:28 AM 52.7°F11.5°C 48.3°F9.1°C 85% Calm Calm 1.0 mph1.6 kmh 29.97 in1014.9 mb 0.00 in0.0 mm 0.00 in0.0 mm 0.00 in0.0 mm
01:29 AM 52.7°F11.5°C 48.3°F9.1°C 85% Calm Calm 1.0 mph1.6 kmh 29.97 in1014.9 mb 0.00 in0.0 mm 0.00 in0.0 mm 0.00 in0.0 mm
01:30 AM 52.5°F11.4°C 48.1°F8.9°C 85% Calm Calm 1.0 mph1.6 kmh 29.97 in1014.9 mb 0.00 in0.0 mm 0.00 in0.0 mm 0.00 in0.0 mm
01:31 AM 52.7°F11.5°C 48.6°F9.2°C 86% Calm Calm 1.0 mph1.6 kmh 29.97 in1014.9 mb 0.00 in0.0 mm 0.00 in0.0 mm 0.00 in0.0 mm
01:32 AM 52.7°F11.5°C 48.6°F9.2°C 86% Calm Calm 1.0 mph1.6 kmh 29.97 in1014.9 mb 0.00 in0.0 mm 0.00 in0.0 mm 0.00 in0.0 mm
01:33 AM 52.7°F11.5°C 48.6°F9.2°C 86% Calm Calm -- 29.97 in1014.9 mb 0.00 in0.0 mm 0.00 in0.0 mm 0.00 in0.0 mm
01:34 AM 52.7°F11.5°C 48.6°F9.2°C 86% Calm Calm -- 29.97 in1014.9 mb 0.00 in0.0 mm 0.00 in0.0 mm 0.00 in0.0 mm
01:35 AM 52.9°F11.6°C 48.8°F9.3°C 86% Calm Calm -- 29.97 in1014.9 mb 0.00 in0.0 mm 0.00 in0.0 mm 0.00 in0.0 mm
01:36 AM 52.9°F11.6°C 48.8°F9.3°C 86% Calm Calm 1.0 mph1.6 kmh 29.97 in1014.9 mb 0.00 in0.0 mm 0.00 in0.0 mm 0.00 in0.0 mm
01:37 AM 52.9°F11.6°C 48.8°F9.3°C 86% Calm Calm 1.0 mph1.6 kmh 29.97 in1014.9 mb 0.00 in0.0 mm 0.00 in0.0 mm 0.00 in0.0 mm
01:38 AM 52.9°F11.6°C 48.8°F9.3°C 86% Calm Calm 1.0 mph1.6 kmh 29.97 in1014.9 mb 0.00 in0.0 mm 0.00 in0.0 mm 0.00 in0.0 mm
01:39 AM 52.9°F11.6°C 48.8°F9.3°C 86% Calm Calm 2.0 mph3.2 kmh 29.97 in1014.9 mb 0.00 in0.0 mm 0.00 in0.0 mm 0.00 in0.0 mm
01:40 AM 53.1°F11.7°C 49.0°F9.4°C 86% Calm Calm 2.0 mph3.2 kmh 29.97 in1014.9 mb 0.00 in0.0 mm 0.00 in0.0 mm 0.00 in0.0 mm
01:41 AM 53.1°F11.7°C 49.0°F9.4°C 86% Calm Calm 2.0 mph3.2 kmh 29.97 in1014.9 mb 0.00 in0.0 mm 0.00 in0.0 mm 0.00 in0.0 mm
01:42 AM 53.1°F11.7°C 48.7°F9.3°C 85% Calm Calm 4.0 mph6.4 kmh 29.97 in1014.9 mb 0.00 in0.0 mm 0.00 in0.0 mm 0.00 in0.0 mm
01:43 AM 53.1°F11.7°C 48.7°F9.3°C 85% Calm Calm 4.0 mph6.4 kmh 29.97 in1014.9 mb 0.00 in0.0 mm 0.00 in0.0 mm 0.00 in0.0 mm
01:44 AM 53.1°F11.7°C 48.7°F9.3°C 85% Calm Calm 4.0 mph6.4 kmh 29.97 in1014.9 mb 0.00 in0.0 mm 0.00 in0.0 mm 0.00 in0.0 mm
01:45 AM 52.9°F11.6°C 48.5°F9.2°C 85% Calm Calm 4.0 mph6.4 kmh 29.97 in1014.9 mb 0.00 in0.0 mm 0.00 in0.0 mm 0.00 in0.0 mm
01:46 AM 52.9°F11.6°C 48.5°F9.2°C 85% Calm Calm 4.0 mph6.4 kmh 29.97 in1014.9 mb 0.00 in0.0 mm 0.00 in0.0 mm 0.00 in0.0 mm
01:47 AM 53.1°F11.7°C 48.7°F9.3°C 85% 1.0 mph SSW1.6 kmh SSW 4.0 mph6.4 kmh 29.97 in1014.9 mb 0.00 in0.0 mm 0.00 in0.0 mm 0.00 in0.0 mm
01:48 AM 53.1°F11.7°C 48.7°F9.3°C 85% 1.0 mph SSW1.6 kmh SSW 4.0 mph6.4 kmh 29.97 in1014.9 mb 0.00 in0.0 mm 0.00 in0.0 mm 0.00 in0.0 mm
01:49 AM 53.1°F11.7°C 48.7°F9.3°C 85% 1.0 mph SSW1.6 kmh SSW 4.0 mph6.4 kmh 29.97 in1014.9 mb 0.00 in0.0 mm 0.00 in0.0 mm 0.00 in0.0 mm
01:50 AM 53.1°F11.7°C 48.7°F9.3°C 85% 1.0 mph SSW1.6 kmh SSW 4.0 mph6.4 kmh 29.97 in1014.9 mb 0.00 in0.0 mm 0.00 in0.0 mm 0.00 in0.0 mm
01:51 AM 53.1°F11.7°C 48.7°F9.3°C 85% 1.0 mph SSW1.6 kmh SSW 4.0 mph6.4 kmh 29.97 in1014.9 mb 0.00 in0.0 mm 0.00 in0.0 mm 0.00 in0.0 mm
01:52 AM 53.1°F11.7°C 48.7°F9.3°C 85% 1.0 mph SSW1.6 kmh SSW 3.0 mph4.8 kmh 29.97 in1014.9 mb 0.00 in0.0 mm 0.00 in0.0 mm 0.00 in0.0 mm
01:53 AM 53.1°F11.7°C 48.7°F9.3°C 85% 2.0 mph SSW3.2 kmh SSW 3.0 mph4.8 kmh 29.97 in1014.9 mb 0.00 in0.0 mm 0.00 in0.0 mm 0.00 in0.0 mm
01:54 AM 53.1°F11.7°C 48.7°F9.3°C 85% 2.0 mph SSW3.2 kmh SSW 3.0 mph4.8 kmh 29.97 in1014.9 mb 0.00 in0.0 mm 0.00 in0.0 mm 0.00 in0.0 mm
01:55 AM 53.1°F11.7°C 48.7°F9.3°C 85% 2.0 mph SSW3.2 kmh SSW 3.0 mph4.8 kmh 29.97 in1014.9 mb 0.00 in0.0 mm 0.00 in0.0 mm 0.00 in0.0 mm
01:56 AM 53.1°F11.7°C 48.4°F9.1°C 84% 2.0 mph SSW3.2 kmh SSW 3.0 mph4.8 kmh 29.97 in1014.9 mb 0.00 in0.0 mm 0.00 in0.0 mm 0.00 in0.0 mm
01:57 AM 53.1°F11.7°C 48.4°F9.1°C 84% 2.0 mph SSW3.2 kmh SSW 3.0 mph4.8 kmh 29.97 in1014.9 mb 0.00 in0.0 mm 0.00 in0.0 mm 0.00 in0.0 mm
01:58 AM 53.1°F11.7°C 48.4°F9.1°C 84% 2.0 mph SSW3.2 kmh SSW 3.0 mph4.8 kmh 29.97 in1014.9 mb 0.00 in0.0 mm 0.00 in0.0 mm 0.00 in0.0 mm
01:59 AM 53.1°F11.7°C 48.4°F9.1°C 84% 2.0 mph SSW3.2 kmh SSW 3.0 mph4.8 kmh 29.97 in1014.9 mb 0.00 in0.0 mm 0.00 in0.0 mm 0.00 in0.0 mm
02:00 AM 53.1°F11.7°C 48.4°F9.1°C 84% 2.0 mph SSW3.2 kmh SSW 3.0 mph4.8 kmh 29.97 in1014.9 mb 0.00 in0.0 mm 0.00 in0.0 mm 0.00 in0.0 mm
02:01 AM 53.1°F11.7°C 48.4°F9.1°C 84% 2.0 mph SSW3.2 kmh SSW 3.0 mph4.8 kmh 29.96 in1014.6 mb 0.00 in0.0 mm 0.00 in0.0 mm 0.00 in0.0 mm
02:02 AM 53.1°F11.7°C 48.4°F9.1°C 84% 2.0 mph SSW3.2 kmh SSW 3.0 mph4.8 kmh 29.97 in1014.9 mb 0.00 in0.0 mm 0.00 in0.0 mm 0.00 in0.0 mm
02:03 AM 53.1°F11.7°C 48.4°F9.1°C 84% 2.0 mph SSW3.2 kmh SSW 3.0 mph4.8 kmh 29.97 in1014.9 mb 0.00 in0.0 mm 0.00 in0.0 mm 0.00 in0.0 mm
02:04 AM 53.1°F11.7°C 48.4°F9.1°C 84% 2.0 mph SSW3.2 kmh SSW 3.0 mph4.8 kmh 29.97 in1014.9 mb 0.00 in0.0 mm 0.00 in0.0 mm 0.00 in0.0 mm
02:05 AM 53.1°F11.7°C 48.4°F9.1°C 84% 2.0 mph SSW3.2 kmh SSW 3.0 mph4.8 kmh 29.96 in1014.6 mb 0.00 in0.0 mm 0.00 in0.0 mm 0.00 in0.0 mm
02:06 AM 53.1°F11.7°C 48.4°F9.1°C 84% 2.0 mph SSW3.2 kmh SSW 3.0 mph4.8 kmh 29.97 in1014.9 mb 0.00 in0.0 mm 0.00 in0.0 mm 0.00 in0.0 mm
02:07 AM 53.1°F11.7°C 48.4°F9.1°C 84% 2.0 mph SSW3.2 kmh SSW 3.0 mph4.8 kmh 29.97 in1014.9 mb 0.00 in0.0 mm 0.00 in0.0 mm 0.00 in0.0 mm
02:08 AM 53.1°F11.7°C 48.4°F9.1°C 84% 1.0 mph SSW1.6 kmh SSW 3.0 mph4.8 kmh 29.97 in1014.9 mb 0.00 in0.0 mm 0.00 in0.0 mm 0.00 in0.0 mm
02:09 AM 53.1°F11.7°C 48.4°F9.1°C 84% 1.0 mph SSW1.6 kmh SSW 1.0 mph1.6 kmh 29.97 in1014.9 mb 0.00 in0.0 mm 0.00 in0.0 mm 0.00 in0.0 mm
02:10 AM 53.1°F11.7°C 48.4°F9.1°C 84% 1.0 mph SSW1.6 kmh SSW 3.0 mph4.8 kmh 29.97 in1014.9 mb 0.00 in0.0 mm 0.00 in0.0 mm 0.00 in0.0 mm
02:11 AM 53.1°F11.7°C 48.4°F9.1°C 84% 1.0 mph SSW1.6 kmh SSW 3.0 mph4.8 kmh 29.97 in1014.9 mb 0.00 in0.0 mm 0.00 in0.0 mm 0.00 in0.0 mm
02:12 AM 53.1°F11.7°C 48.4°F9.1°C 84% 1.0 mph SSW1.6 kmh SSW 3.0 mph4.8 kmh 29.97 in1014.9 mb 0.00 in0.0 mm 0.00 in0.0 mm 0.00 in0.0 mm
02:13 AM 52.9°F11.6°C 48.2°F9.0°C 84% 1.0 mph SSW1.6 kmh SSW 3.0 mph4.8 kmh 29.97 in1014.9 mb 0.00 in0.0 mm 0.00 in0.0 mm 0.00 in0.0 mm
02:14 AM 52.9°F11.6°C 48.2°F9.0°C 84% Calm Calm 4.0 mph6.4 kmh 29.97 in1014.9 mb 0.00 in0.0 mm 0.00 in0.0 mm 0.00 in0.0 mm
02:15 AM 52.9°F11.6°C 48.2°F9.0°C 84% Calm Calm 4.0 mph6.4 kmh 29.97 in1014.9 mb 0.00 in0.0 mm 0.00 in0.0 mm 0.00 in0.0 mm
02:16 AM 52.9°F11.6°C 48.2°F9.0°C 84% Calm Calm 4.0 mph6.4 kmh 29.97 in1014.9 mb 0.00 in0.0 mm 0.00 in0.0 mm 0.00 in0.0 mm
02:17 AM 52.9°F11.6°C 48.2°F9.0°C 84% Calm Calm 4.0 mph6.4 kmh 29.97 in1014.9 mb 0.00 in0.0 mm 0.00 in0.0 mm 0.00 in0.0 mm
02:18 AM 52.9°F11.6°C 48.2°F9.0°C 84% Calm Calm 5.0 mph8.0 kmh 29.97 in1014.9 mb 0.00 in0.0 mm 0.00 in0.0 mm 0.00 in0.0 mm
02:19 AM 52.9°F11.6°C 48.2°F9.0°C 84% 1.0 mph SW1.6 kmh SW 5.0 mph8.0 kmh 29.97 in1014.9 mb 0.00 in0.0 mm 0.00 in0.0 mm 0.00 in0.0 mm
02:20 AM 52.9°F11.6°C 48.2°F9.0°C 84% 1.0 mph SW1.6 kmh SW 5.0 mph8.0 kmh 29.96 in1014.6 mb 0.00 in0.0 mm 0.00 in0.0 mm 0.00 in0.0 mm
02:21 AM 52.9°F11.6°C 48.2°F9.0°C 84% 1.0 mph SW1.6 kmh SW 5.0 mph8.0 kmh 29.96 in1014.6 mb 0.00 in0.0 mm 0.00 in0.0 mm 0.00 in0.0 mm
02:22 AM 52.9°F11.6°C 48.2°F9.0°C 84% 1.0 mph SW1.6 kmh SW 5.0 mph8.0 kmh 29.96 in1014.6 mb 0.00 in0.0 mm 0.00 in0.0 mm 0.00 in0.0 mm
02:23 AM 52.7°F11.5°C 48.0°F8.9°C 84% 1.0 mph SW1.6 kmh SW 5.0 mph8.0 kmh 29.96 in1014.6 mb 0.00 in0.0 mm 0.00 in0.0 mm 0.00 in0.0 mm
02:24 AM 52.7°F11.5°C 48.0°F8.9°C 84% 2.0 mph SW3.2 kmh SW 5.0 mph8.0 kmh 29.96 in1014.6 mb 0.00 in0.0 mm 0.00 in0.0 mm 0.00 in0.0 mm
02:25 AM 52.7°F11.5°C 48.0°F8.9°C 84% 2.0 mph SW3.2 kmh SW 5.0 mph8.0 kmh 29.96 in1014.6 mb 0.00 in0.0 mm 0.00 in0.0 mm 0.00 in0.0 mm
02:26 AM 52.7°F11.5°C 48.0°F8.9°C 84% 2.0 mph SW3.2 kmh SW 5.0 mph8.0 kmh 29.96 in1014.6 mb 0.00 in0.0 mm 0.00 in0.0 mm 0.00 in0.0 mm
02:27 AM 52.5°F11.4°C 47.8°F8.8°C 84% 2.0 mph SW3.2 kmh SW 5.0 mph8.0 kmh 29.96 in1014.6 mb 0.00 in0.0 mm 0.00 in0.0 mm 0.00 in0.0 mm
02:28 AM 52.5°F11.4°C 47.8°F8.8°C 84% 3.0 mph SW4.8 kmh SW 5.0 mph8.0 kmh 29.96 in1014.6 mb 0.00 in0.0 mm 0.00 in0.0 mm 0.00 in0.0 mm
02:29 AM 52.5°F11.4°C 47.8°F8.8°C 84% 3.0 mph SW4.8 kmh SW 5.0 mph8.0 kmh 29.96 in1014.6 mb 0.00 in0.0 mm 0.00 in0.0 mm 0.00 in0.0 mm
02:30 AM 52.7°F11.5°C 48.0°F8.9°C 84% 3.0 mph SW4.8 kmh SW 5.0 mph8.0 kmh 29.96 in1014.6 mb 0.00 in0.0 mm 0.00 in0.0 mm 0.00 in0.0 mm
02:31 AM 52.7°F11.5°C 48.0°F8.9°C 84% 3.0 mph SW4.8 kmh SW 5.0 mph8.0 kmh 29.96 in1014.6 mb 0.00 in0.0 mm 0.00 in0.0 mm 0.00 in0.0 mm
02:32 AM 52.7°F11.5°C 48.0°F8.9°C 84% 3.0 mph SW4.8 kmh SW 5.0 mph8.0 kmh 29.96 in1014.6 mb 0.00 in0.0 mm 0.00 in0.0 mm 0.00 in0.0 mm
02:33 AM 52.7°F11.5°C 48.0°F8.9°C 84% 3.0 mph SW4.8 kmh SW 5.0 mph8.0 kmh 29.96 in1014.6 mb 0.00 in0.0 mm 0.00 in0.0 mm 0.00 in0.0 mm
02:34 AM 52.9°F11.6°C 48.2°F9.0°C 84% 3.0 mph SW4.8 kmh SW 5.0 mph8.0 kmh 29.96 in1014.6 mb 0.00 in0.0 mm 0.00 in0.0 mm 0.00 in0.0 mm
02:35 AM 52.9°F11.6°C 48.2°F9.0°C 84% 3.0 mph SW4.8 kmh SW 5.0 mph8.0 kmh 29.96 in1014.6 mb 0.00 in0.0 mm 0.00 in0.0 mm 0.00 in0.0 mm
02:36 AM 52.9°F11.6°C 48.2°F9.0°C 84% 3.0 mph SW4.8 kmh SW 5.0 mph8.0 kmh 29.96 in1014.6 mb 0.00 in0.0 mm 0.00 in0.0 mm 0.00 in0.0 mm
02:37 AM 52.9°F11.6°C 48.2°F9.0°C 84% 3.0 mph SW4.8 kmh SW 5.0 mph8.0 kmh 29.96 in1014.6 mb 0.00 in0.0 mm 0.00 in0.0 mm 0.00 in0.0 mm
02:38 AM 52.9°F11.6°C 48.2°F9.0°C 84% 3.0 mph SW4.8 kmh SW 5.0 mph8.0 kmh 29.96 in1014.6 mb 0.00 in0.0 mm 0.00 in0.0 mm 0.00 in0.0 mm
02:39 AM 52.9°F11.6°C 48.2°F9.0°C 84% 2.0 mph SW3.2 kmh SW 4.0 mph6.4 kmh 29.96 in1014.6 mb 0.00 in0.0 mm 0.00 in0.0 mm 0.00 in0.0 mm
02:40 AM 52.9°F11.6°C 48.2°F9.0°C 84% 2.0 mph SW3.2 kmh SW 4.0 mph6.4 kmh 29.96 in1014.6 mb 0.00 in0.0 mm 0.00 in0.0 mm 0.00 in0.0 mm
02:41 AM 52.9°F11.6°C 48.2°F9.0°C 84% 2.0 mph SW3.2 kmh SW 3.0 mph4.8 kmh 29.96 in1014.6 mb 0.00 in0.0 mm 0.00 in0.0 mm 0.00 in0.0 mm
02:42 AM 52.9°F11.6°C 48.2°F9.0°C 84% 2.0 mph SW3.2 kmh SW 1.0 mph1.6 kmh 29.96 in1014.6 mb 0.00 in0.0 mm 0.00 in0.0 mm 0.00 in0.0 mm
02:43 AM 52.9°F11.6°C 48.2°F9.0°C 84% 1.0 mph 1.6 kmh -- 29.96 in1014.6 mb 0.00 in0.0 mm 0.00 in0.0 mm 0.00 in0.0 mm
02:44 AM 52.9°F11.6°C 48.2°F9.0°C 84% 1.0 mph 1.6 kmh -- 29.96 in1014.6 mb 0.00 in0.0 mm 0.00 in0.0 mm 0.00 in0.0 mm
02:45 AM 52.9°F11.6°C 48.2°F9.0°C 84% 1.0 mph 1.6 kmh -- 29.96 in1014.6 mb 0.00 in0.0 mm 0.00 in0.0 mm 0.00 in0.0 mm
02:46 AM 53.1°F11.7°C 48.4°F9.1°C 84% 1.0 mph 1.6 kmh -- 29.96 in1014.6 mb 0.00 in0.0 mm 0.00 in0.0 mm 0.00 in0.0 mm
02:47 AM 53.1°F11.7°C 48.4°F9.1°C 84% Calm Calm -- 29.96 in1014.6 mb 0.00 in0.0 mm 0.00 in0.0 mm 0.00 in0.0 mm
02:48 AM 53.1°F11.7°C 48.4°F9.1°C 84% Calm Calm -- 29.96 in1014.6 mb 0.00 in0.0 mm 0.00 in0.0 mm 0.00 in0.0 mm
02:49 AM 53.1°F11.7°C 48.4°F9.1°C 84% Calm Calm -- 29.96 in1014.6 mb 0.00 in0.0 mm 0.00 in0.0 mm 0.00 in0.0 mm
02:50 AM 53.1°F11.7°C 48.4°F9.1°C 84% Calm Calm -- 29.96 in1014.6 mb 0.00 in0.0 mm 0.00 in0.0 mm 0.00 in0.0 mm
02:51 AM 53.1°F11.7°C 48.4°F9.1°C 84% Calm Calm -- 29.96 in1014.6 mb 0.00 in0.0 mm 0.00 in0.0 mm 0.00 in0.0 mm
02:52 AM 53.1°F11.7°C 48.4°F9.1°C 84% Calm Calm 2.0 mph3.2 kmh 29.96 in1014.6 mb 0.00 in0.0 mm 0.00 in0.0 mm 0.00 in0.0 mm
02:53 AM 53.1°F11.7°C 48.4°F9.1°C 84% Calm Calm 2.0 mph3.2 kmh 29.96 in1014.6 mb 0.00 in0.0 mm 0.00 in0.0 mm 0.00 in0.0 mm
02:54 AM 52.9°F11.6°C 48.2°F9.0°C 84% Calm Calm 2.0 mph3.2 kmh 29.96 in1014.6 mb 0.00 in0.0 mm 0.00 in0.0 mm 0.00 in0.0 mm
02:55 AM 52.7°F11.5°C 48.0°F8.9°C 84% Calm Calm 2.0 mph3.2 kmh 29.96 in1014.6 mb 0.00 in0.0 mm 0.00 in0.0 mm 0.00 in0.0 mm
02:56 AM 52.3°F11.3°C 47.6°F8.7°C 84% Calm Calm 2.0 mph3.2 kmh 29.96 in1014.6 mb 0.00 in0.0 mm 0.00 in0.0 mm 0.00 in0.0 mm
02:57 AM 52.3°F11.3°C 47.6°F8.7°C 84% Calm Calm 2.0 mph3.2 kmh 29.96 in1014.6 mb 0.00 in0.0 mm 0.00 in0.0 mm 0.00 in0.0 mm
02:58 AM 52.2°F11.2°C 47.8°F8.8°C 85% Calm Calm 2.0 mph3.2 kmh 29.96 in1014.6 mb 0.00 in0.0 mm 0.00 in0.0 mm 0.00 in0.0 mm
02:59 AM 52.0°F11.1°C 47.6°F8.7°C 85% Calm Calm 2.0 mph3.2 kmh 29.96 in1014.6 mb 0.00 in0.0 mm 0.00 in0.0 mm 0.00 in0.0 mm
03:00 AM 52.0°F11.1°C 47.9°F8.8°C 86% 1.0 mph SW1.6 kmh SW 2.0 mph3.2 kmh 29.96 in1014.6 mb 0.00 in0.0 mm 0.00 in0.0 mm 0.00 in0.0 mm
03:01 AM 51.8°F11.0°C 47.7°F8.7°C 86% 1.0 mph SW1.6 kmh SW 2.0 mph3.2 kmh 29.96 in1014.6 mb 0.00 in0.0 mm 0.00 in0.0 mm 0.00 in0.0 mm
03:02 AM 51.6°F10.9°C 47.6°F8.7°C 86% 1.0 mph SW1.6 kmh SW 2.0 mph3.2 kmh 29.96 in1014.6 mb 0.00 in0.0 mm 0.00 in0.0 mm 0.00 in0.0 mm
03:03 AM 51.6°F10.9°C 47.6°F8.7°C 86% 1.0 mph SW1.6 kmh SW 2.0 mph3.2 kmh 29.96 in1014.6 mb 0.00 in0.0 mm 0.00 in0.0 mm 0.00 in0.0 mm
03:04 AM 51.4°F10.8°C 47.7°F8.7°C 87% 1.0 mph SW1.6 kmh SW 2.0 mph3.2 kmh 29.96 in1014.6 mb 0.00 in0.0 mm 0.00 in0.0 mm 0.00 in0.0 mm
03:05 AM 51.4°F10.8°C 47.7°F8.7°C 87% 1.0 mph SW1.6 kmh SW 2.0 mph3.2 kmh 29.96 in1014.6 mb 0.00 in0.0 mm 0.00 in0.0 mm 0.00 in0.0 mm
03:06 AM 51.4°F10.8°C 47.7°F8.7°C 87% 1.0 mph SSW1.6 kmh SSW 1.0 mph1.6 kmh 29.96 in1014.6 mb 0.00 in0.0 mm 0.00 in0.0 mm 0.00 in0.0 mm
03:07 AM 51.3°F10.7°C 47.5°F8.6°C 87% 1.0 mph 1.6 kmh -- 29.96 in1014.6 mb 0.00 in0.0 mm 0.00 in0.0 mm 0.00 in0.0 mm
03:08 AM 51.3°F10.7°C 47.5°F8.6°C 87% 1.0 mph 1.6 kmh -- 29.96 in1014.6 mb 0.00 in0.0 mm 0.00 in0.0 mm 0.00 in0.0 mm
03:09 AM 51.3°F10.7°C 47.5°F8.6°C 87% 1.0 mph 1.6 kmh -- 29.96 in1014.6 mb 0.00 in0.0 mm 0.00 in0.0 mm 0.00 in0.0 mm
03:10 AM 51.3°F10.7°C 47.8°F8.8°C 88% Calm Calm -- 29.96 in1014.6 mb 0.00 in0.0 mm 0.00 in0.0 mm 0.00 in0.0 mm
03:11 AM 51.1°F10.6°C 47.6°F8.7°C 88% Calm Calm -- 29.96 in1014.6 mb 0.00 in0.0 mm 0.00 in0.0 mm 0.00 in0.0 mm
03:12 AM 51.1°F10.6°C 47.6°F8.7°C 88% Calm Calm -- 29.96 in1014.6 mb 0.00 in0.0 mm 0.00 in0.0 mm 0.00 in0.0 mm
03:13 AM 51.1°F10.6°C 47.6°F8.7°C 88% Calm Calm -- 29.96 in1014.6 mb 0.00 in0.0 mm 0.00 in0.0 mm 0.00 in0.0 mm
03:14 AM 51.1°F10.6°C 47.6°F8.7°C 88% Calm Calm -- 29.96 in1014.6 mb 0.00 in0.0 mm 0.00 in0.0 mm 0.00 in0.0 mm
03:15 AM 51.1°F10.6°C 47.6°F8.7°C 88% Calm Calm -- 29.96 in1014.6 mb 0.00 in0.0 mm 0.00 in0.0 mm 0.00 in0.0 mm
03:16 AM 51.1°F10.6°C 48.0°F8.9°C 89% Calm Calm -- 29.96 in1014.6 mb 0.00 in0.0 mm 0.00 in0.0 mm 0.00 in0.0 mm
03:17 AM 51.1°F10.6°C 48.0°F8.9°C 89% Calm Calm -- 29.96 in1014.6 mb 0.00 in0.0 mm 0.00 in0.0 mm 0.00 in0.0 mm
03:18 AM 51.1°F10.6°C 48.0°F8.9°C 89% Calm Calm -- 29.96 in1014.6 mb 0.00 in0.0 mm 0.00 in0.0 mm 0.00 in0.0 mm
03:19 AM 50.9°F10.5°C 47.8°F8.8°C 89% Calm Calm -- 29.96 in1014.6 mb 0.00 in0.0 mm 0.00 in0.0 mm 0.00 in0.0 mm
03:20 AM 50.9°F10.5°C 47.8°F8.8°C 89% Calm Calm -- 29.96 in1014.6 mb 0.00 in0.0 mm 0.00 in0.0 mm 0.00 in0.0 mm
03:21 AM 50.9°F10.5°C 47.8°F8.8°C 89% Calm Calm -- 29.96 in1014.6 mb 0.00 in0.0 mm 0.00 in0.0 mm 0.00 in0.0 mm
03:22 AM 50.9°F10.5°C 47.8°F8.8°C 89% Calm Calm -- 29.96 in1014.6 mb 0.00 in0.0 mm 0.00 in0.0 mm 0.00 in0.0 mm
03:23 AM 50.9°F10.5°C 47.8°F8.8°C 89% Calm Calm -- 29.96 in1014.6 mb 0.00 in0.0 mm 0.00 in0.0 mm 0.00 in0.0 mm
03:24 AM 50.7°F10.4°C 47.6°F8.7°C 89% Calm Calm -- 29.96 in1014.6 mb 0.00 in0.0 mm 0.00 in0.0 mm 0.00 in0.0 mm
03:25 AM 50.7°F10.4°C 47.6°F8.7°C 89% Calm Calm -- 29.96 in1014.6 mb 0.00 in0.0 mm 0.00 in0.0 mm 0.00 in0.0 mm
03:26 AM 50.7°F10.4°C 47.6°F8.7°C 89% Calm Calm -- 29.96 in1014.6 mb 0.00 in0.0 mm 0.00 in0.0 mm 0.00 in0.0 mm
03:27 AM 50.7°F10.4°C 47.6°F8.7°C 89% Calm Calm -- 29.96 in1014.6 mb 0.00 in0.0 mm 0.00 in0.0 mm 0.00 in0.0 mm
03:28 AM 50.7°F10.4°C 47.6°F8.7°C 89% Calm Calm -- 29.96 in1014.6 mb 0.00 in0.0 mm 0.00 in0.0 mm 0.00 in0.0 mm
03:29 AM 50.7°F10.4°C 47.6°F8.7°C 89% Calm Calm -- 29.96 in1014.6 mb 0.00 in0.0 mm 0.00 in0.0 mm 0.00 in0.0 mm
03:30 AM 50.7°F10.4°C 47.9°F8.8°C 90% Calm Calm -- 29.96 in1014.6 mb 0.00 in0.0 mm 0.00 in0.0 mm 0.00 in0.0 mm
03:31 AM 50.7°F10.4°C 47.9°F8.8°C 90% Calm Calm -- 29.96 in1014.6 mb 0.00 in0.0 mm 0.00 in0.0 mm 0.00 in0.0 mm
03:32 AM 50.7°F10.4°C 47.9°F8.8°C 90% Calm Calm -- 29.96 in1014.6 mb 0.00 in0.0 mm 0.00 in0.0 mm 0.00 in0.0 mm
03:33 AM 50.7°F10.4°C 47.9°F8.8°C 90% Calm Calm -- 29.96 in1014.6 mb 0.00 in0.0 mm 0.00 in0.0 mm 0.00 in0.0 mm
03:34 AM 50.7°F10.4°C 47.9°F8.8°C 90% Calm Calm -- 29.96 in1014.6 mb 0.00 in0.0 mm 0.00 in0.0 mm 0.00 in0.0 mm
03:35 AM 50.7°F10.4°C 47.9°F8.8°C 90% Calm Calm -- 29.96 in1014.6 mb 0.00 in0.0 mm 0.00 in0.0 mm 0.00 in0.0 mm
03:36 AM 50.7°F10.4°C 47.9°F8.8°C 90% Calm Calm -- 29.96 in1014.6 mb 0.00 in0.0 mm 0.00 in0.0 mm 0.00 in0.0 mm
03:37 AM 50.9°F10.5°C 48.1°F8.9°C 90% Calm Calm -- 29.96 in1014.6 mb 0.00 in0.0 mm 0.00 in0.0 mm 0.00 in0.0 mm
03:38 AM 50.9°F10.5°C 48.1°F8.9°C 90% Calm Calm -- 29.96 in1014.6 mb 0.00 in0.0 mm 0.00 in0.0 mm 0.00 in0.0 mm
03:39 AM 50.9°F10.5°C 48.1°F8.9°C 90% Calm Calm -- 29.96 in1014.6 mb 0.00 in0.0 mm 0.00 in0.0 mm 0.00 in0.0 mm
03:40 AM 50.9°F10.5°C 48.1°F8.9°C 90% Calm Calm -- 29.96 in1014.6 mb 0.00 in0.0 mm 0.00 in0.0 mm 0.00 in0.0 mm
03:41 AM 50.9°F10.5°C 48.1°F8.9°C 90% Calm Calm -- 29.96 in1014.6 mb 0.00 in0.0 mm 0.00 in0.0 mm 0.00 in0.0 mm
03:42 AM 50.9°F10.5°C 48.4°F9.1°C 91% Calm Calm -- 29.96 in1014.6 mb 0.00 in0.0 mm 0.00 in0.0 mm 0.00 in0.0 mm
03:43 AM 50.9°F10.5°C 48.4°F9.1°C 91% Calm Calm -- 29.96 in1014.6 mb 0.00 in0.0 mm 0.00 in0.0 mm 0.00 in0.0 mm
03:44 AM 51.1°F10.6°C 48.5°F9.2°C 91% Calm Calm -- 29.96 in1014.6 mb 0.00 in0.0 mm 0.00 in0.0 mm 0.00 in0.0 mm
03:45 AM 51.1°F10.6°C 48.5°F9.2°C 91% Calm Calm -- 29.96 in1014.6 mb 0.00 in0.0 mm 0.00 in0.0 mm 0.00 in0.0 mm
03:46 AM 51.1°F10.6°C 48.5°F9.2°C 91% Calm Calm -- 29.96 in1014.6 mb 0.00 in0.0 mm 0.00 in0.0 mm 0.00 in0.0 mm
03:47 AM 51.1°F10.6°C 48.5°F9.2°C 91% Calm Calm -- 29.96 in1014.6 mb 0.00 in0.0 mm 0.00 in0.0 mm 0.00 in0.0 mm
03:48 AM 51.1°F10.6°C 48.5°F9.2°C 91% Calm Calm -- 29.96 in1014.6 mb 0.00 in0.0 mm 0.00 in0.0 mm 0.00 in0.0 mm
03:49 AM 51.1°F10.6°C 48.5°F9.2°C 91% Calm Calm -- 29.96 in1014.6 mb 0.00 in0.0 mm 0.00 in0.0 mm 0.00 in0.0 mm
03:50 AM 51.1°F10.6°C 48.5°F9.2°C 91% Calm Calm -- 29.96 in1014.6 mb 0.00 in0.0 mm 0.00 in0.0 mm 0.00 in0.0 mm
03:51 AM 51.1°F10.6°C 48.5°F9.2°C 91% Calm Calm -- 29.96 in1014.6 mb 0.00 in0.0 mm 0.00 in0.0 mm 0.00 in0.0 mm
03:52 AM 51.1°F10.6°C 48.5°F9.2°C 91% Calm Calm -- 29.96 in1014.6 mb 0.00 in0.0 mm 0.00 in0.0 mm 0.00 in0.0 mm
03:53 AM 51.1°F10.6°C 48.5°F9.2°C 91% Calm Calm -- 29.96 in1014.6 mb 0.00 in0.0 mm 0.00 in0.0 mm 0.00 in0.0 mm
03:54 AM 51.1°F10.6°C 48.5°F9.2°C 91% Calm Calm -- 29.96 in1014.6 mb 0.00 in0.0 mm 0.00 in0.0 mm 0.00 in0.0 mm
03:55 AM 51.1°F10.6°C 48.5°F9.2°C 91% Calm Calm -- 29.96 in1014.6 mb 0.00 in0.0 mm 0.00 in0.0 mm 0.00 in0.0 mm
03:56 AM 51.1°F10.6°C 48.5°F9.2°C 91% Calm Calm -- 29.96 in1014.6 mb 0.00 in0.0 mm 0.00 in0.0 mm 0.00 in0.0 mm
03:57 AM 51.1°F10.6°C 48.5°F9.2°C 91% Calm Calm -- 29.96 in1014.6 mb 0.00 in0.0 mm 0.00 in0.0 mm 0.00 in0.0 mm
03:58 AM 51.1°F10.6°C 48.5°F9.2°C 91% Calm Calm -- 29.96 in1014.6 mb 0.00 in0.0 mm 0.00 in0.0 mm 0.00 in0.0 mm
03:59 AM 51.1°F10.6°C 48.5°F9.2°C 91% Calm Calm -- 29.95 in1014.2 mb 0.00 in0.0 mm 0.00 in0.0 mm 0.00 in0.0 mm
04:00 AM 51.1°F10.6°C 48.5°F9.2°C 91% Calm Calm -- 29.95 in1014.2 mb 0.00 in0.0 mm 0.00 in0.0 mm 0.00 in0.0 mm
04:01 AM 51.1°F10.6°C 48.5°F9.2°C 91% Calm Calm -- 29.96 in1014.6 mb 0.00 in0.0 mm 0.00 in0.0 mm 0.00 in0.0 mm
04:02 AM 50.9°F10.5°C 48.4°F9.1°C 91% Calm Calm -- 29.96 in1014.6 mb 0.00 in0.0 mm 0.00 in0.0 mm 0.00 in0.0 mm
04:03 AM 50.9°F10.5°C 48.4°F9.1°C 91% Calm Calm -- 29.96 in1014.6 mb 0.00 in0.0 mm 0.00 in0.0 mm 0.00 in0.0 mm
04:04 AM 50.9°F10.5°C 48.4°F9.1°C 91% Calm Calm -- 29.96 in1014.6 mb 0.00 in0.0 mm 0.00 in0.0 mm 0.00 in0.0 mm
04:05 AM 50.9°F10.5°C 48.4°F9.1°C 91% Calm Calm -- 29.96 in1014.6 mb 0.00 in0.0 mm 0.00 in0.0 mm 0.00 in0.0 mm
04:06 AM 50.7°F10.4°C 48.2°F9.0°C 91% Calm Calm -- 29.96 in1014.6 mb 0.00 in0.0 mm 0.00 in0.0 mm 0.00 in0.0 mm
04:07 AM 50.7°F10.4°C 48.2°F9.0°C 91% Calm Calm -- 29.95 in1014.2 mb 0.00 in0.0 mm 0.00 in0.0 mm 0.00 in0.0 mm
04:08 AM 50.7°F10.4°C 48.2°F9.0°C 91% Calm Calm -- 29.95 in1014.2 mb 0.00 in0.0 mm 0.00 in0.0 mm 0.00 in0.0 mm
04:09 AM 50.7°F10.4°C 48.2°F9.0°C 91% Calm Calm -- 29.95 in1014.2 mb 0.00 in0.0 mm 0.00 in0.0 mm 0.00 in0.0 mm
04:10 AM 50.7°F10.4°C 48.2°F9.0°C 91% Calm Calm -- 29.95 in1014.2 mb 0.00 in0.0 mm 0.00 in0.0 mm 0.00 in0.0 mm
04:11 AM 50.7°F10.4°C 48.2°F9.0°C 91% Calm Calm -- 29.95 in1014.2 mb 0.00 in0.0 mm 0.00 in0.0 mm 0.00 in0.0 mm
04:12 AM 50.7°F10.4°C 48.2°F9.0°C 91% Calm Calm -- 29.95 in1014.2 mb 0.00 in0.0 mm 0.00 in0.0 mm 0.00 in0.0 mm
04:13 AM 50.9°F10.5°C 48.4°F9.1°C 91% Calm Calm -- 29.95 in1014.2 mb 0.00 in0.0 mm 0.00 in0.0 mm 0.00 in0.0 mm
04:14 AM 50.9°F10.5°C 48.4°F9.1°C 91% Calm Calm -- 29.95 in1014.2 mb 0.00 in0.0 mm 0.00 in0.0 mm 0.00 in0.0 mm
04:15 AM 50.9°F10.5°C 48.4°F9.1°C 91% Calm Calm -- 29.95 in1014.2 mb 0.00 in0.0 mm 0.00 in0.0 mm 0.00 in0.0 mm
04:16 AM 50.9°F10.5°C 48.4°F9.1°C 91% Calm Calm -- 29.95 in1014.2 mb 0.00 in0.0 mm 0.00 in0.0 mm 0.00 in0.0 mm
04:17 AM 51.1°F10.6°C 48.5°F9.2°C 91% Calm Calm -- 29.95 in1014.2 mb 0.00 in0.0 mm 0.00 in0.0 mm 0.00 in0.0 mm
04:18 AM 51.1°F10.6°C 48.5°F9.2°C 91% Calm Calm -- 29.95 in1014.2 mb 0.00 in0.0 mm 0.00 in0.0 mm 0.00 in0.0 mm
04:19 AM 51.1°F10.6°C 48.5°F9.2°C 91% Calm Calm -- 29.95 in1014.2 mb 0.00 in0.0 mm 0.00 in0.0 mm 0.00 in0.0 mm
04:20 AM 51.1°F10.6°C 48.5°F9.2°C 91% Calm Calm -- 29.95 in1014.2 mb 0.00 in0.0 mm 0.00 in0.0 mm 0.00 in0.0 mm
04:21 AM 51.1°F10.6°C 48.5°F9.2°C 91% Calm Calm -- 29.95 in1014.2 mb 0.00 in0.0 mm 0.00 in0.0 mm 0.00 in0.0 mm
04:22 AM 51.1°F10.6°C 48.5°F9.2°C 91% Calm Calm -- 29.95 in1014.2 mb 0.00 in0.0 mm 0.00 in0.0 mm 0.00 in0.0 mm
04:23 AM 51.3°F10.7°C 48.7°F9.3°C 91% Calm Calm -- 29.95 in1014.2 mb 0.00 in0.0 mm 0.00 in0.0 mm 0.00 in0.0 mm
04:24 AM 51.3°F10.7°C 48.7°F9.3°C 91% Calm Calm -- 29.95 in1014.2 mb 0.00 in0.0 mm 0.00 in0.0 mm 0.00 in0.0 mm
04:25 AM 51.3°F10.7°C 48.7°F9.3°C 91% Calm Calm -- 29.95 in1014.2 mb 0.00 in0.0 mm 0.00 in0.0 mm 0.00 in0.0 mm
04:26 AM 51.3°F10.7°C 48.7°F9.3°C 91% Calm Calm -- 29.95 in1014.2 mb 0.00 in0.0 mm 0.00 in0.0 mm 0.00 in0.0 mm
04:27 AM 51.3°F10.7°C 48.7°F9.3°C 91% Calm Calm -- 29.95 in1014.2 mb 0.00 in0.0 mm 0.00 in0.0 mm 0.00 in0.0 mm
04:28 AM 51.3°F10.7°C 48.4°F9.1°C 90% Calm Calm -- 29.95 in1014.2 mb 0.00 in0.0 mm 0.00 in0.0 mm 0.00 in0.0 mm
04:29 AM 51.3°F10.7°C 48.4°F9.1°C 90% Calm Calm -- 29.95 in1014.2 mb 0.00 in0.0 mm 0.00 in0.0 mm 0.00 in0.0 mm
04:30 AM 51.3°F10.7°C 48.4°F9.1°C 90% Calm Calm -- 29.95 in1014.2 mb 0.00 in0.0 mm 0.00 in0.0 mm 0.00 in0.0 mm
04:31 AM 51.4°F10.8°C 48.6°F9.2°C 90% Calm Calm 1.0 mph1.6 kmh 29.95 in1014.2 mb 0.00 in0.0 mm 0.00 in0.0 mm 0.00 in0.0 mm
04:32 AM 51.4°F10.8°C 48.6°F9.2°C 90% Calm Calm 1.0 mph1.6 kmh 29.95 in1014.2 mb 0.00 in0.0 mm 0.00 in0.0 mm 0.00 in0.0 mm
04:33 AM 51.4°F10.8°C 48.6°F9.2°C 90% Calm Calm 1.0 mph1.6 kmh 29.95 in1014.2 mb 0.00 in0.0 mm 0.00 in0.0 mm 0.00 in0.0 mm
04:34 AM 51.4°F10.8°C 48.6°F9.2°C 90% Calm Calm 1.0 mph1.6 kmh 29.95 in1014.2 mb 0.00 in0.0 mm 0.00 in0.0 mm 0.00 in0.0 mm
04:35 AM 51.4°F10.8°C 48.6°F9.2°C 90% Calm Calm 1.0 mph1.6 kmh 29.95 in1014.2 mb 0.00 in0.0 mm 0.00 in0.0 mm 0.00 in0.0 mm
04:36 AM 51.4°F10.8°C 48.6°F9.2°C 90% Calm Calm 1.0 mph1.6 kmh 29.95 in1014.2 mb 0.00 in0.0 mm 0.00 in0.0 mm 0.00 in0.0 mm
04:37 AM 51.4°F10.8°C 48.6°F9.2°C 90% Calm Calm 1.0 mph1.6 kmh 29.95 in1014.2 mb 0.00 in0.0 mm 0.00 in0.0 mm 0.00 in0.0 mm
04:38 AM 51.4°F10.8°C 48.6°F9.2°C 90% Calm Calm 1.0 mph1.6 kmh 29.95 in1014.2 mb 0.00 in0.0 mm 0.00 in0.0 mm 0.00 in0.0 mm
04:39 AM 51.4°F10.8°C 48.6°F9.2°C 90% Calm Calm 1.0 mph1.6 kmh 29.95 in1014.2 mb 0.00 in0.0 mm 0.00 in0.0 mm 0.00 in0.0 mm
04:40 AM 51.4°F10.8°C 48.6°F9.2°C 90% Calm Calm 1.0 mph1.6 kmh 29.95 in1014.2 mb 0.00 in0.0 mm 0.00 in0.0 mm 0.00 in0.0 mm
04:41 AM 51.4°F10.8°C 48.6°F9.2°C 90% Calm Calm 1.0 mph1.6 kmh 29.95 in1014.2 mb 0.00 in0.0 mm 0.00 in0.0 mm 0.00 in0.0 mm
04:42 AM 51.4°F10.8°C 48.6°F9.2°C 90% Calm Calm 1.0 mph1.6 kmh 29.95 in1014.2 mb 0.00 in0.0 mm 0.00 in0.0 mm 0.00 in0.0 mm
04:43 AM 51.4°F10.8°C 48.6°F9.2°C 90% Calm Calm 1.0 mph1.6 kmh 29.95 in1014.2 mb 0.00 in0.0 mm 0.00 in0.0 mm 0.00 in0.0 mm
04:44 AM 51.4°F10.8°C 48.3°F9.1°C 89% Calm Calm -- 29.95 in1014.2 mb 0.00 in0.0 mm 0.00 in0.0 mm 0.00 in0.0 mm
04:45 AM 51.4°F10.8°C 48.3°F9.1°C 89% Calm Calm -- 29.95 in1014.2 mb 0.00 in0.0 mm 0.00 in0.0 mm 0.00 in0.0 mm
04:46 AM 51.4°F10.8°C 48.3°F9.1°C 89% Calm Calm -- 29.95 in1014.2 mb 0.00 in0.0 mm 0.00 in0.0 mm 0.00 in0.0 mm
04:47 AM 51.4°F10.8°C 48.3°F9.1°C 89% Calm Calm -- 29.95 in1014.2 mb 0.00 in0.0 mm 0.00 in0.0 mm 0.00 in0.0 mm
04:48 AM 51.4°F10.8°C 48.3°F9.1°C 89% Calm Calm -- 29.95 in1014.2 mb 0.00 in0.0 mm 0.00 in0.0 mm 0.00 in0.0 mm
04:49 AM 51.4°F10.8°C 48.3°F9.1°C 89% Calm Calm -- 29.95 in1014.2 mb 0.00 in0.0 mm 0.00 in0.0 mm 0.00 in0.0 mm
04:50 AM 51.4°F10.8°C 48.6°F9.2°C 90% Calm Calm -- 29.95 in1014.2 mb 0.00 in0.0 mm 0.00 in0.0 mm 0.00 in0.0 mm
04:51 AM 51.4°F10.8°C 48.3°F9.1°C 89% Calm Calm -- 29.95 in1014.2 mb 0.00 in0.0 mm 0.00 in0.0 mm 0.00 in0.0 mm
04:52 AM 51.3°F10.7°C 48.1°F8.9°C 89% Calm Calm -- 29.95 in1014.2 mb 0.00 in0.0 mm 0.00 in0.0 mm 0.00 in0.0 mm
04:53 AM 51.3°F10.7°C 48.1°F8.9°C 89% Calm Calm -- 29.95 in1014.2 mb 0.00 in0.0 mm 0.00 in0.0 mm 0.00 in0.0 mm
04:54 AM 51.3°F10.7°C 48.1°F8.9°C 89% Calm Calm -- 29.95 in1014.2 mb 0.00 in0.0 mm 0.00 in0.0 mm 0.00 in0.0 mm
04:55 AM 51.3°F10.7°C 48.1°F8.9°C 89% Calm Calm -- 29.95 in1014.2 mb 0.00 in0.0 mm 0.00 in0.0 mm 0.00 in0.0 mm
04:56 AM 51.1°F10.6°C 48.0°F8.9°C 89% Calm Calm 1.0 mph1.6 kmh 29.95 in1014.2 mb 0.00 in0.0 mm 0.00 in0.0 mm 0.00 in0.0 mm
04:57 AM 51.1°F10.6°C 48.0°F8.9°C 89% Calm Calm 1.0 mph1.6 kmh 29.95 in1014.2 mb 0.00 in0.0 mm 0.00 in0.0 mm 0.00 in0.0 mm
04:58 AM 51.1°F10.6°C 48.0°F8.9°C 89% Calm Calm 1.0 mph1.6 kmh 29.95 in1014.2 mb 0.00 in0.0 mm 0.00 in0.0 mm 0.00 in0.0 mm
04:59 AM 50.9°F10.5°C 47.8°F8.8°C 89% Calm Calm 1.0 mph1.6 kmh 29.95 in1014.2 mb 0.00 in0.0 mm 0.00 in0.0 mm 0.00 in0.0 mm
05:00 AM 50.7°F10.4°C 47.6°F8.7°C 89% Calm Calm 1.0 mph1.6 kmh 29.95 in1014.2 mb 0.00 in0.0 mm 0.00 in0.0 mm 0.00 in0.0 mm
05:01 AM 50.7°F10.4°C 47.6°F8.7°C 89% Calm Calm 1.0 mph1.6 kmh 29.95 in1014.2 mb 0.00 in0.0 mm 0.00 in0.0 mm 0.00 in0.0 mm
05:02 AM 50.7°F10.4°C 47.6°F8.7°C 89% Calm Calm 1.0 mph1.6 kmh 29.95 in1014.2 mb 0.00 in0.0 mm 0.00 in0.0 mm 0.00 in0.0 mm
05:03 AM 50.7°F10.4°C 47.6°F8.7°C 89% Calm Calm 1.0 mph1.6 kmh 29.95 in1014.2 mb 0.00 in0.0 mm 0.00 in0.0 mm 0.00 in0.0 mm
05:04 AM 50.7°F10.4°C 47.6°F8.7°C 89% Calm Calm 1.0 mph1.6 kmh 29.95 in1014.2 mb 0.00 in0.0 mm 0.00 in0.0 mm 0.00 in0.0 mm
05:05 AM 50.7°F10.4°C 47.6°F8.7°C 89% Calm Calm 1.0 mph1.6 kmh 29.95 in1014.2 mb 0.00 in0.0 mm 0.00 in0.0 mm 0.00 in0.0 mm
05:06 AM 50.7°F10.4°C 47.6°F8.7°C 89% Calm Calm -- 29.95 in1014.2 mb 0.00 in0.0 mm 0.00 in0.0 mm 0.00 in0.0 mm
05:07 AM 50.5°F10.3°C 47.4°F8.6°C 89% Calm Calm -- 29.95 in1014.2 mb 0.00 in0.0 mm 0.00 in0.0 mm 0.00 in0.0 mm
05:08 AM 50.5°F10.3°C 47.7°F8.7°C 90% Calm Calm -- 29.95 in1014.2 mb 0.00 in0.0 mm 0.00 in0.0 mm 0.00 in0.0 mm
05:09 AM 50.5°F10.3°C 47.7°F8.7°C 90% Calm Calm -- 29.95 in1014.2 mb 0.00 in0.0 mm 0.00 in0.0 mm 0.00 in0.0 mm
05:10 AM 50.5°F10.3°C 47.4°F8.6°C 89% Calm Calm -- 29.95 in1014.2 mb 0.00 in0.0 mm 0.00 in0.0 mm 0.00 in0.0 mm
05:11 AM 50.5°F10.3°C 47.4°F8.6°C 89% Calm Calm -- 29.95 in1014.2 mb 0.00 in0.0 mm 0.00 in0.0 mm 0.00 in0.0 mm
05:12 AM 50.5°F10.3°C 47.4°F8.6°C 89% Calm Calm -- 29.95 in1014.2 mb 0.00 in0.0 mm 0.00 in0.0 mm 0.00 in0.0 mm
05:13 AM 50.5°F10.3°C 47.4°F8.6°C 89% Calm Calm -- 29.95 in1014.2 mb 0.00 in0.0 mm 0.00 in0.0 mm 0.00 in0.0 mm
05:14 AM 50.4°F10.2°C 47.5°F8.6°C 90% Calm Calm -- 29.95 in1014.2 mb 0.00 in0.0 mm 0.00 in0.0 mm 0.00 in0.0 mm
05:15 AM 50.4°F10.2°C 47.5°F8.6°C 90% Calm Calm -- 29.95 in1014.2 mb 0.00 in0.0 mm 0.00 in0.0 mm 0.00 in0.0 mm
05:16 AM 50.4°F10.2°C 47.5°F8.6°C 90% Calm Calm -- 29.95 in1014.2 mb 0.00 in0.0 mm 0.00 in0.0 mm 0.00 in0.0 mm
05:17 AM 50.4°F10.2°C 47.5°F8.6°C 90% Calm Calm -- 29.95 in1014.2 mb 0.00 in0.0 mm 0.00 in0.0 mm 0.00 in0.0 mm
05:18 AM 50.4°F10.2°C 47.5°F8.6°C 90% Calm Calm -- 29.95 in1014.2 mb 0.00 in0.0 mm 0.00 in0.0 mm 0.00 in0.0 mm
05:19 AM 50.4°F10.2°C 47.5°F8.6°C 90% Calm Calm -- 29.95 in1014.2 mb 0.00 in0.0 mm 0.00 in0.0 mm 0.00 in0.0 mm
05:20 AM 50.4°F10.2°C 47.5°F8.6°C 90% Calm Calm -- 29.95 in1014.2 mb 0.00 in0.0 mm 0.00 in0.0 mm 0.00 in0.0 mm
05:21 AM 50.4°F10.2°C 47.5°F8.6°C 90% Calm Calm -- 29.95 in1014.2 mb 0.00 in0.0 mm 0.00 in0.0 mm 0.00 in0.0 mm
05:22 AM 50.2°F10.1°C 47.4°F8.6°C 90% Calm Calm -- 29.95 in1014.2 mb 0.00 in0.0 mm 0.00 in0.0 mm 0.00 in0.0 mm
05:23 AM 50.4°F10.2°C 47.5°F8.6°C 90% Calm Calm -- 29.95 in1014.2 mb 0.00 in0.0 mm 0.00 in0.0 mm 0.00 in0.0 mm
05:24 AM 50.4°F10.2°C 47.5°F8.6°C 90% Calm Calm -- 29.95 in1014.2 mb 0.00 in0.0 mm 0.00 in0.0 mm 0.00 in0.0 mm
05:25 AM 50.2°F10.1°C 47.4°F8.6°C 90% Calm Calm -- 29.95 in1014.2 mb 0.00 in0.0 mm 0.00 in0.0 mm 0.00 in0.0 mm
05:26 AM 50.2°F10.1°C 47.4°F8.6°C 90% Calm Calm -- 29.95 in1014.2 mb 0.00 in0.0 mm 0.00 in0.0 mm 0.00 in0.0 mm
05:27 AM 50.2°F10.1°C 47.4°F8.6°C 90% Calm Calm -- 29.95 in1014.2 mb 0.00 in0.0 mm 0.00 in0.0 mm 0.00 in0.0 mm
05:28 AM 50.2°F10.1°C 47.4°F8.6°C 90% Calm Calm -- 29.95 in1014.2 mb 0.00 in0.0 mm 0.00 in0.0 mm 0.00 in0.0 mm
05:29 AM 50.2°F10.1°C 47.4°F8.6°C 90% Calm Calm -- 29.95 in1014.2 mb 0.00 in0.0 mm 0.00 in0.0 mm 0.00 in0.0 mm
05:30 AM 50.2°F10.1°C 47.4°F8.6°C 90% Calm Calm -- 29.95 in1014.2 mb 0.00 in0.0 mm 0.00 in0.0 mm 0.00 in0.0 mm
05:31 AM 50.2°F10.1°C 47.4°F8.6°C 90% Calm Calm -- 29.95 in1014.2 mb 0.00 in0.0 mm 0.00 in0.0 mm 0.00 in0.0 mm
05:32 AM 50.2°F10.1°C 47.4°F8.6°C 90% Calm Calm -- 29.95 in1014.2 mb 0.00 in0.0 mm 0.00 in0.0 mm 0.00 in0.0 mm
06:47 PM 59.0°F15.0°C 52.8°F11.6°C 80% 2.0 mph SW3.2 kmh SW 6.0 mph9.7 kmh 29.96 in1014.6 mb 0.38 in9.7 mm 1.52 in38.6 mm 0.38 in9.7 mm
06:48 PM 58.6°F14.8°C 52.5°F11.4°C 80% 2.0 mph SW3.2 kmh SW 9.0 mph14.5 kmh 29.96 in1014.6 mb 0.38 in9.7 mm 0.00 in0.0 mm 0.38 in9.7 mm
06:49 PM 58.5°F14.7°C 52.3°F11.3°C 80% 2.0 mph SW3.2 kmh SW 11.0 mph17.7 kmh 29.96 in1014.6 mb 0.39 in9.9 mm 0.60 in15.2 mm 0.39 in9.9 mm
06:50 PM 58.5°F14.7°C 52.3°F11.3°C 80% 2.0 mph SW3.2 kmh SW 11.0 mph17.7 kmh 29.96 in1014.6 mb 0.39 in9.9 mm 0.00 in0.0 mm 0.39 in9.9 mm
06:51 PM 58.5°F14.7°C 52.3°F11.3°C 80% 3.0 mph SW4.8 kmh SW 11.0 mph17.7 kmh 29.96 in1014.6 mb 0.39 in9.9 mm 0.00 in0.0 mm 0.39 in9.9 mm
06:52 PM 58.3°F14.6°C 52.5°F11.4°C 81% 3.0 mph SW4.8 kmh SW 11.0 mph17.7 kmh 29.96 in1014.6 mb 0.39 in9.9 mm 0.00 in0.0 mm 0.39 in9.9 mm
06:53 PM 58.3°F14.6°C 52.5°F11.4°C 81% 3.0 mph SW4.8 kmh SW 11.0 mph17.7 kmh 29.96 in1014.6 mb 0.39 in9.9 mm 0.00 in0.0 mm 0.39 in9.9 mm
06:54 PM 58.3°F14.6°C 52.5°F11.4°C 81% 3.0 mph SW4.8 kmh SW 11.0 mph17.7 kmh 29.96 in1014.6 mb 0.39 in9.9 mm 0.00 in0.0 mm 0.39 in9.9 mm
06:55 PM 58.3°F14.6°C 52.5°F11.4°C 81% 4.0 mph SW6.4 kmh SW 11.0 mph17.7 kmh 29.96 in1014.6 mb 0.39 in9.9 mm 0.00 in0.0 mm 0.39 in9.9 mm
06:56 PM 58.3°F14.6°C 52.5°F11.4°C 81% 4.0 mph SW6.4 kmh SW 11.0 mph17.7 kmh 29.96 in1014.6 mb 0.39 in9.9 mm 0.00 in0.0 mm 0.39 in9.9 mm
06:57 PM 58.3°F14.6°C 52.5°F11.4°C 81% 4.0 mph SW6.4 kmh SW 11.0 mph17.7 kmh 29.96 in1014.6 mb 0.39 in9.9 mm 0.00 in0.0 mm 0.39 in9.9 mm
06:58 PM 58.3°F14.6°C 52.5°F11.4°C 81% 4.0 mph SW6.4 kmh SW 11.0 mph17.7 kmh 29.96 in1014.6 mb 0.39 in9.9 mm 0.00 in0.0 mm 0.39 in9.9 mm
06:59 PM 58.3°F14.6°C 52.5°F11.4°C 81% 4.0 mph SSW6.4 kmh SSW 9.0 mph14.5 kmh 29.96 in1014.6 mb 0.40 in10.2 mm 0.60 in15.2 mm 0.40 in10.2 mm
07:00 PM 58.3°F14.6°C 52.5°F11.4°C 81% 5.0 mph SSW8.0 kmh SSW 9.0 mph14.5 kmh 29.96 in1014.6 mb 0.40 in10.2 mm 0.00 in0.0 mm 0.40 in10.2 mm
07:01 PM 58.3°F14.6°C 52.5°F11.4°C 81% 5.0 mph SSW8.0 kmh SSW 9.0 mph14.5 kmh 29.96 in1014.6 mb 0.40 in10.2 mm 0.00 in0.0 mm 0.40 in10.2 mm
07:02 PM 58.1°F14.5°C 52.6°F11.4°C 82% 5.0 mph SSW8.0 kmh SSW 9.0 mph14.5 kmh 29.96 in1014.6 mb 0.40 in10.2 mm 0.00 in0.0 mm 0.40 in10.2 mm
07:03 PM 58.1°F14.5°C 52.6°F11.4°C 82% 5.0 mph SSW8.0 kmh SSW 9.0 mph14.5 kmh 29.96 in1014.6 mb 0.40 in10.2 mm 0.00 in0.0 mm 0.40 in10.2 mm
07:04 PM 58.1°F14.5°C 52.6°F11.4°C 82% 5.0 mph SSW8.0 kmh SSW 9.0 mph14.5 kmh 29.96 in1014.6 mb 0.40 in10.2 mm 0.00 in0.0 mm 0.40 in10.2 mm
07:05 PM 57.9°F14.4°C 52.8°F11.6°C 83% 5.0 mph SSW8.0 kmh SSW 9.0 mph14.5 kmh 29.96 in1014.6 mb 0.41 in10.4 mm 0.60 in15.2 mm 0.41 in10.4 mm
07:06 PM 57.9°F14.4°C 52.8°F11.6°C 83% 5.0 mph SSW8.0 kmh SSW 9.0 mph14.5 kmh 29.96 in1014.6 mb 0.41 in10.4 mm 0.00 in0.0 mm 0.41 in10.4 mm
07:07 PM 57.9°F14.4°C 52.8°F11.6°C 83% 5.0 mph SSW8.0 kmh SSW 9.0 mph14.5 kmh 29.96 in1014.6 mb 0.41 in10.4 mm 0.00 in0.0 mm 0.41 in10.4 mm
07:08 PM 58.1°F14.5°C 53.3°F11.8°C 84% 5.0 mph SSW8.0 kmh SSW 9.0 mph14.5 kmh 29.96 in1014.6 mb 0.41 in10.4 mm 0.00 in0.0 mm 0.41 in10.4 mm
07:09 PM 58.1°F14.5°C 53.3°F11.8°C 84% 5.0 mph SSW8.0 kmh SSW 9.0 mph14.5 kmh 29.96 in1014.6 mb 0.41 in10.4 mm 0.00 in0.0 mm 0.41 in10.4 mm
07:10 PM 58.3°F14.6°C 53.5°F11.9°C 84% 5.0 mph SSW8.0 kmh SSW 8.0 mph12.9 kmh 29.96 in1014.6 mb 0.43 in10.9 mm 1.20 in30.5 mm 0.43 in10.9 mm
07:11 PM 58.3°F14.6°C 53.5°F11.9°C 84% 4.0 mph SSW6.4 kmh SSW 8.0 mph12.9 kmh 29.97 in1014.9 mb 0.44 in11.2 mm 0.60 in15.2 mm 0.44 in11.2 mm
07:12 PM 58.1°F14.5°C 53.3°F11.8°C 84% 4.0 mph SSW6.4 kmh SSW 8.0 mph12.9 kmh 29.97 in1014.9 mb 0.49 in12.4 mm 3.00 in76.2 mm 0.49 in12.4 mm
07:13 PM 58.1°F14.5°C 53.3°F11.8°C 84% 4.0 mph S6.4 kmh S 7.0 mph11.3 kmh 29.97 in1014.9 mb 0.53 in13.5 mm 2.40 in61.0 mm 0.53 in13.5 mm
07:14 PM 57.9°F14.4°C 53.1°F11.7°C 84% 3.0 mph S4.8 kmh S 6.0 mph9.7 kmh 29.97 in1014.9 mb 0.57 in14.5 mm 2.40 in61.0 mm 0.57 in14.5 mm
07:15 PM 57.9°F14.4°C 53.1°F11.7°C 84% 3.0 mph S4.8 kmh S 5.0 mph8.0 kmh 29.97 in1014.9 mb 0.60 in15.2 mm 1.80 in45.7 mm 0.60 in15.2 mm
07:16 PM 57.7°F14.3°C 53.3°F11.8°C 85% 3.0 mph S4.8 kmh S 3.0 mph4.8 kmh 29.97 in1014.9 mb 0.61 in15.5 mm 0.60 in15.2 mm 0.62 in15.7 mm
07:17 PM 57.7°F14.3°C 53.3°F11.8°C 85% 2.0 mph S3.2 kmh S 3.0 mph4.8 kmh 29.97 in1014.9 mb 0.63 in16.0 mm 1.20 in30.5 mm 0.65 in16.5 mm
07:18 PM 57.7°F14.3°C 53.6°F12.0°C 86% 2.0 mph SSE3.2 kmh SSE 3.0 mph4.8 kmh 29.97 in1014.9 mb 0.62 in15.7 mm 0.00 in0.0 mm 0.65 in16.5 mm
07:19 PM 57.7°F14.3°C 53.6°F12.0°C 86% 2.0 mph SE3.2 kmh SE 3.0 mph4.8 kmh 29.97 in1014.9 mb 0.63 in16.0 mm 0.60 in15.2 mm 0.67 in17.0 mm
07:20 PM 57.7°F14.3°C 53.9°F12.2°C 87% 1.0 mph E1.6 kmh E 4.0 mph6.4 kmh 29.97 in1014.9 mb 0.64 in16.3 mm 0.60 in15.2 mm 0.69 in17.5 mm
07:21 PM 57.7°F14.3°C 53.9°F12.2°C 87% 1.0 mph NE1.6 kmh NE 4.0 mph6.4 kmh 29.97 in1014.9 mb 0.64 in16.3 mm 0.00 in0.0 mm 0.69 in17.5 mm
07:22 PM 57.7°F14.3°C 54.2°F12.3°C 88% 1.0 mph NE1.6 kmh NE 4.0 mph6.4 kmh 29.97 in1014.9 mb 0.64 in16.3 mm 0.00 in0.0 mm 0.70 in17.8 mm
07:23 PM 57.7°F14.3°C 53.9°F12.2°C 87% 1.0 mph NE1.6 kmh NE 5.0 mph8.0 kmh 29.97 in1014.9 mb 0.65 in16.5 mm 0.60 in15.2 mm 0.72 in18.3 mm
07:24 PM 57.7°F14.3°C 53.9°F12.2°C 87% 1.0 mph NE1.6 kmh NE 5.0 mph8.0 kmh 29.97 in1014.9 mb 0.65 in16.5 mm 0.00 in0.0 mm 0.72 in18.3 mm
07:25 PM 57.7°F14.3°C 53.9°F12.2°C 87% 1.0 mph NE1.6 kmh NE 7.0 mph11.3 kmh 29.97 in1014.9 mb 0.65 in16.5 mm 0.00 in0.0 mm 0.73 in18.5 mm
07:26 PM 57.7°F14.3°C 53.6°F12.0°C 86% 1.0 mph NE1.6 kmh NE 7.0 mph11.3 kmh 29.97 in1014.9 mb 0.64 in16.3 mm 0.00 in0.0 mm 0.74 in18.8 mm
07:27 PM 57.6°F14.2°C 53.4°F11.9°C 86% 1.0 mph WSW1.6 kmh WSW 11.0 mph17.7 kmh 29.97 in1014.9 mb 0.63 in16.0 mm 0.00 in0.0 mm 0.75 in19.1 mm
07:28 PM 57.6°F14.2°C 52.4°F11.3°C 83% 2.0 mph WSW3.2 kmh WSW 11.0 mph17.7 kmh 29.97 in1014.9 mb 0.63 in16.0 mm 0.00 in0.0 mm 0.76 in19.3 mm
07:29 PM 57.7°F14.3°C 52.6°F11.4°C 83% 2.0 mph SW3.2 kmh SW 11.0 mph17.7 kmh 29.98 in1015.2 mb 0.63 in16.0 mm 0.00 in0.0 mm 0.76 in19.3 mm
07:30 PM 57.7°F14.3°C 52.6°F11.4°C 83% 2.0 mph SW3.2 kmh SW 11.0 mph17.7 kmh 29.97 in1014.9 mb 0.61 in15.5 mm 0.00 in0.0 mm 0.76 in19.3 mm
07:31 PM 57.6°F14.2°C 51.8°F11.0°C 81% 3.0 mph SW4.8 kmh SW 11.0 mph17.7 kmh 29.98 in1015.2 mb 0.57 in14.5 mm 0.00 in0.0 mm 0.77 in19.6 mm
07:32 PM 57.6°F14.2°C 51.8°F11.0°C 81% 3.0 mph SW4.8 kmh SW 11.0 mph17.7 kmh 29.98 in1015.2 mb 0.54 in13.7 mm 0.00 in0.0 mm 0.78 in19.8 mm
07:33 PM 57.6°F14.2°C 51.8°F11.0°C 81% 3.0 mph SW4.8 kmh SW 11.0 mph17.7 kmh 29.98 in1015.2 mb 0.51 in13.0 mm 0.00 in0.0 mm 0.79 in20.1 mm
07:34 PM 57.6°F14.2°C 52.4°F11.3°C 83% 3.0 mph SW4.8 kmh SW 11.0 mph17.7 kmh 29.98 in1015.2 mb 0.50 in12.7 mm 0.00 in0.0 mm 0.80 in20.3 mm
07:35 PM 57.6°F14.2°C 52.4°F11.3°C 83% 4.0 mph SW6.4 kmh SW 11.0 mph17.7 kmh 29.98 in1015.2 mb 0.43 in10.9 mm 0.00 in0.0 mm 0.81 in20.6 mm
07:36 PM 57.4°F14.1°C 52.3°F11.3°C 83% 4.0 mph SW6.4 kmh SW 11.0 mph17.7 kmh 29.98 in1015.2 mb 0.44 in11.2 mm 0.60 in15.2 mm 0.82 in20.8 mm
07:37 PM 57.4°F14.1°C 52.6°F11.4°C 84% 3.0 mph SW4.8 kmh SW 7.0 mph11.3 kmh 29.98 in1015.2 mb 0.46 in11.7 mm 1.20 in30.5 mm 0.83 in21.1 mm
07:38 PM 57.4°F14.1°C 52.6°F11.4°C 84% 3.0 mph SSW4.8 kmh SSW 7.0 mph11.3 kmh 29.98 in1015.2 mb 0.47 in11.9 mm 0.60 in15.2 mm 0.85 in21.6 mm
07:39 PM 57.2°F14.0°C 52.4°F11.3°C 84% 3.0 mph SSW4.8 kmh SSW 7.0 mph11.3 kmh 29.98 in1015.2 mb 0.49 in12.4 mm 1.20 in30.5 mm 0.87 in22.1 mm
07:40 PM 57.0°F13.9°C 52.2°F11.2°C 84% 3.0 mph S4.8 kmh S 5.0 mph8.0 kmh 29.98 in1015.2 mb 0.49 in12.4 mm 0.00 in0.0 mm 0.87 in22.1 mm
07:41 PM 57.0°F13.9°C 52.6°F11.4°C 85% 2.0 mph SSE3.2 kmh SSE 4.0 mph6.4 kmh 29.98 in1015.2 mb 0.50 in12.7 mm 0.60 in15.2 mm 0.87 in22.1 mm
07:42 PM 57.0°F13.9°C 52.6°F11.4°C 85% 2.0 mph SSE3.2 kmh SSE 4.0 mph6.4 kmh 29.98 in1015.2 mb 0.50 in12.7 mm 0.00 in0.0 mm 0.88 in22.4 mm
07:43 PM 57.0°F13.9°C 52.6°F11.4°C 85% 2.0 mph SSE3.2 kmh SSE 3.0 mph4.8 kmh 29.98 in1015.2 mb 0.50 in12.7 mm 0.00 in0.0 mm 0.88 in22.4 mm
07:44 PM 57.0°F13.9°C 52.6°F11.4°C 85% 1.0 mph SSE1.6 kmh SSE 3.0 mph4.8 kmh 29.98 in1015.2 mb 0.50 in12.7 mm 0.00 in0.0 mm 0.88 in22.4 mm
07:45 PM 57.2°F14.0°C 53.0°F11.7°C 86% 1.0 mph NNE1.6 kmh NNE 1.0 mph1.6 kmh 29.98 in1015.2 mb 0.50 in12.7 mm 0.00 in0.0 mm 0.88 in22.4 mm
07:46 PM 57.2°F14.0°C 53.0°F11.7°C 86% 1.0 mph NNE1.6 kmh NNE 1.0 mph1.6 kmh 29.98 in1015.2 mb 0.50 in12.7 mm 0.00 in0.0 mm 0.88 in22.4 mm
07:47 PM 57.2°F14.0°C 53.0°F11.7°C 86% 1.0 mph N1.6 kmh N 2.0 mph3.2 kmh 29.98 in1015.2 mb 0.50 in12.7 mm 0.00 in0.0 mm 0.88 in22.4 mm
07:48 PM 57.2°F14.0°C 52.7°F11.5°C 85% 1.0 mph N1.6 kmh N 3.0 mph4.8 kmh 29.97 in1014.9 mb 0.50 in12.7 mm 0.00 in0.0 mm 0.88 in22.4 mm
07:49 PM 57.0°F13.9°C 52.9°F11.6°C 86% Calm Calm 3.0 mph4.8 kmh 29.97 in1014.9 mb 0.50 in12.7 mm 0.00 in0.0 mm 0.89 in22.6 mm
07:50 PM 57.0°F13.9°C 52.9°F11.6°C 86% Calm Calm 3.0 mph4.8 kmh 29.97 in1014.9 mb 0.50 in12.7 mm 0.00 in0.0 mm 0.89 in22.6 mm
07:51 PM 57.2°F14.0°C 53.0°F11.7°C 86% Calm Calm 3.0 mph4.8 kmh 29.97 in1014.9 mb 0.50 in12.7 mm 0.00 in0.0 mm 0.89 in22.6 mm
07:52 PM 57.2°F14.0°C 53.0°F11.7°C 86% Calm Calm 3.0 mph4.8 kmh 29.97 in1014.9 mb 0.50 in12.7 mm 0.00 in0.0 mm 0.89 in22.6 mm
07:53 PM 57.4°F14.1°C 53.2°F11.8°C 86% Calm Calm 4.0 mph6.4 kmh 29.97 in1014.9 mb 0.50 in12.7 mm 0.00 in0.0 mm 0.89 in22.6 mm
07:54 PM 57.2°F14.0°C 53.0°F11.7°C 86% Calm Calm 5.0 mph8.0 kmh 29.97 in1014.9 mb 0.50 in12.7 mm 0.00 in0.0 mm 0.89 in22.6 mm
07:55 PM 57.4°F14.1°C 52.9°F11.6°C 85% Calm Calm 5.0 mph8.0 kmh 29.97 in1014.9 mb 0.50 in12.7 mm 0.00 in0.0 mm 0.89 in22.6 mm
07:56 PM 57.4°F14.1°C 53.2°F11.8°C 86% Calm Calm 5.0 mph8.0 kmh 29.97 in1014.9 mb 0.50 in12.7 mm 0.00 in0.0 mm 0.89 in22.6 mm
07:57 PM 57.2°F14.0°C 52.4°F11.3°C 84% 1.0 mph ENE1.6 kmh ENE 5.0 mph8.0 kmh 29.97 in1014.9 mb 0.50 in12.7 mm 0.00 in0.0 mm 0.89 in22.6 mm
07:58 PM 57.0°F13.9°C 52.2°F11.2°C 84% 1.0 mph ENE1.6 kmh ENE 7.0 mph11.3 kmh 29.97 in1014.9 mb 0.49 in12.4 mm 0.00 in0.0 mm 0.89 in22.6 mm
07:59 PM 57.2°F14.0°C 52.1°F11.2°C 83% 1.0 mph ENE1.6 kmh ENE 7.0 mph11.3 kmh 29.97 in1014.9 mb 0.50 in12.7 mm 0.60 in15.2 mm 0.90 in22.9 mm
08:00 PM 57.2°F14.0°C 52.1°F11.2°C 83% 1.0 mph ENE1.6 kmh ENE 7.0 mph11.3 kmh 29.97 in1014.9 mb 0.50 in12.7 mm 0.00 in0.0 mm 0.90 in22.9 mm
08:01 PM 57.2°F14.0°C 51.8°F11.0°C 82% 2.0 mph ENE3.2 kmh ENE 7.0 mph11.3 kmh 29.97 in1014.9 mb 0.50 in12.7 mm 0.00 in0.0 mm 0.90 in22.9 mm
08:02 PM 57.2°F14.0°C 51.8°F11.0°C 82% 2.0 mph ENE3.2 kmh ENE 7.0 mph11.3 kmh 29.97 in1014.9 mb 0.50 in12.7 mm 0.00 in0.0 mm 0.90 in22.9 mm
08:03 PM 57.2°F14.0°C 51.8°F11.0°C 82% 2.0 mph ENE3.2 kmh ENE 7.0 mph11.3 kmh 29.97 in1014.9 mb 0.50 in12.7 mm 0.00 in0.0 mm 0.90 in22.9 mm
08:04 PM 57.2°F14.0°C 51.8°F11.0°C 82% 2.0 mph ENE3.2 kmh ENE 7.0 mph11.3 kmh 29.97 in1014.9 mb 0.49 in12.4 mm 0.00 in0.0 mm 0.90 in22.9 mm
08:05 PM 57.4°F14.1°C 51.9°F11.1°C 82% 2.0 mph ENE3.2 kmh ENE 7.0 mph11.3 kmh 29.97 in1014.9 mb 0.49 in12.4 mm 0.00 in0.0 mm 0.90 in22.9 mm
08:06 PM 57.4°F14.1°C 51.9°F11.1°C 82% 3.0 mph ENE4.8 kmh ENE 7.0 mph11.3 kmh 29.97 in1014.9 mb 0.49 in12.4 mm 0.00 in0.0 mm 0.90 in22.9 mm
08:07 PM 57.4°F14.1°C 51.9°F11.1°C 82% 3.0 mph ENE4.8 kmh ENE 7.0 mph11.3 kmh 29.97 in1014.9 mb 0.49 in12.4 mm 0.00 in0.0 mm 0.90 in22.9 mm
08:08 PM 57.4°F14.1°C 51.9°F11.1°C 82% 3.0 mph ENE4.8 kmh ENE 5.0 mph8.0 kmh 29.97 in1014.9 mb 0.49 in12.4 mm 0.00 in0.0 mm 0.90 in22.9 mm
08:09 PM 57.4°F14.1°C 51.9°F11.1°C 82% 3.0 mph ENE4.8 kmh ENE 5.0 mph8.0 kmh 29.97 in1014.9 mb 0.49 in12.4 mm 0.00 in0.0 mm 0.90 in22.9 mm
08:10 PM 57.4°F14.1°C 51.9°F11.1°C 82% 3.0 mph ENE4.8 kmh ENE 4.0 mph6.4 kmh 29.97 in1014.9 mb 0.47 in11.9 mm 0.00 in0.0 mm 0.90 in22.9 mm
08:11 PM 57.2°F14.0°C 51.8°F11.0°C 82% 3.0 mph ENE4.8 kmh ENE 3.0 mph4.8 kmh 29.97 in1014.9 mb 0.41 in10.4 mm 0.00 in0.0 mm 0.90 in22.9 mm
08:12 PM 57.2°F14.0°C 52.1°F11.2°C 83% 2.0 mph E3.2 kmh E 3.0 mph4.8 kmh 29.97 in1014.9 mb 0.41 in10.4 mm 0.00 in0.0 mm 0.90 in22.9 mm
08:13 PM 57.4°F14.1°C 52.6°F11.4°C 84% 2.0 mph E3.2 kmh E 3.0 mph4.8 kmh 29.97 in1014.9 mb 0.37 in9.4 mm 0.00 in0.0 mm 0.90 in22.9 mm
08:14 PM 57.4°F14.1°C 52.6°F11.4°C 84% 2.0 mph E3.2 kmh E 4.0 mph6.4 kmh 29.97 in1014.9 mb 0.30 in7.6 mm 0.00 in0.0 mm 0.90 in22.9 mm
08:15 PM 57.2°F14.0°C 52.7°F11.5°C 85% 2.0 mph E3.2 kmh E 4.0 mph6.4 kmh 29.97 in1014.9 mb 0.30 in7.6 mm 0.00 in0.0 mm 0.90 in22.9 mm
08:16 PM 57.0°F13.9°C 52.6°F11.4°C 85% 2.0 mph ESE3.2 kmh ESE 4.0 mph6.4 kmh 29.97 in1014.9 mb 0.28 in7.1 mm 0.00 in0.0 mm 0.90 in22.9 mm
08:17 PM 57.0°F13.9°C 52.6°F11.4°C 85% 2.0 mph SE3.2 kmh SE 4.0 mph6.4 kmh 29.97 in1014.9 mb 0.25 in6.4 mm 0.00 in0.0 mm 0.90 in22.9 mm
08:18 PM 57.0°F13.9°C 52.6°F11.4°C 85% 2.0 mph SE3.2 kmh SE 6.0 mph9.7 kmh 29.97 in1014.9 mb 0.24 in6.1 mm 0.00 in0.0 mm 0.90 in22.9 mm
08:19 PM 57.0°F13.9°C 52.6°F11.4°C 85% 2.0 mph SE3.2 kmh SE 6.0 mph9.7 kmh 29.97 in1014.9 mb 0.23 in5.8 mm 0.00 in0.0 mm 0.90 in22.9 mm
08:20 PM 57.0°F13.9°C 52.6°F11.4°C 85% 2.0 mph SSE3.2 kmh SSE 7.0 mph11.3 kmh 29.98 in1015.2 mb 0.21 in5.3 mm 0.00 in0.0 mm 0.90 in22.9 mm
08:21 PM 57.0°F13.9°C 52.9°F11.6°C 86% 2.0 mph SSE3.2 kmh SSE 7.0 mph11.3 kmh 29.98 in1015.2 mb 0.20 in5.1 mm 0.00 in0.0 mm 0.90 in22.9 mm
08:22 PM 57.0°F13.9°C 53.2°F11.8°C 87% 2.0 mph S3.2 kmh S 7.0 mph11.3 kmh 29.98 in1015.2 mb 0.20 in5.1 mm 0.00 in0.0 mm 0.90 in22.9 mm
08:23 PM 57.2°F14.0°C 53.4°F11.9°C 87% 2.0 mph S3.2 kmh S 7.0 mph11.3 kmh 29.98 in1015.2 mb 0.18 in4.6 mm 0.00 in0.0 mm 0.90 in22.9 mm
08:24 PM 57.2°F14.0°C 53.4°F11.9°C 87% 3.0 mph S4.8 kmh S 7.0 mph11.3 kmh 29.98 in1015.2 mb 0.17 in4.3 mm 0.00 in0.0 mm 0.90 in22.9 mm
08:25 PM 57.0°F13.9°C 53.2°F11.8°C 87% 3.0 mph S4.8 kmh S 7.0 mph11.3 kmh 29.98 in1015.2 mb 0.17 in4.3 mm 0.00 in0.0 mm 0.90 in22.9 mm
08:26 PM 57.0°F13.9°C 53.2°F11.8°C 87% 3.0 mph S4.8 kmh S 7.0 mph11.3 kmh 29.98 in1015.2 mb 0.16 in4.1 mm 0.00 in0.0 mm 0.90 in22.9 mm
08:27 PM 57.2°F14.0°C 53.4°F11.9°C 87% 3.0 mph S4.8 kmh S 7.0 mph11.3 kmh 29.98 in1015.2 mb 0.15 in3.8 mm 0.00 in0.0 mm 0.90 in22.9 mm
08:28 PM 57.2°F14.0°C 53.4°F11.9°C 87% 4.0 mph S6.4 kmh S 7.0 mph11.3 kmh 29.98 in1015.2 mb 0.14 in3.6 mm 0.00 in0.0 mm 0.90 in22.9 mm
08:29 PM 57.2°F14.0°C 53.4°F11.9°C 87% 4.0 mph S6.4 kmh S 7.0 mph11.3 kmh 29.98 in1015.2 mb 0.13 in3.3 mm 0.00 in0.0 mm 0.90 in22.9 mm
08:30 PM 57.2°F14.0°C 53.7°F12.1°C 88% 4.0 mph S6.4 kmh S 7.0 mph11.3 kmh 29.98 in1015.2 mb 0.13 in3.3 mm 0.00 in0.0 mm 0.90 in22.9 mm
08:31 PM 57.2°F14.0°C 53.7°F12.1°C 88% 4.0 mph S6.4 kmh S 7.0 mph11.3 kmh 29.98 in1015.2 mb 0.13 in3.3 mm 0.00 in0.0 mm 0.90 in22.9 mm
08:32 PM 57.0°F13.9°C 53.5°F11.9°C 88% 4.0 mph S6.4 kmh S 7.0 mph11.3 kmh 29.98 in1015.2 mb 0.11 in2.8 mm 0.00 in0.0 mm 0.90 in22.9 mm
08:33 PM 57.0°F13.9°C 53.5°F11.9°C 88% 4.0 mph S6.4 kmh S 7.0 mph11.3 kmh 29.99 in1015.6 mb 0.09 in2.3 mm 0.00 in0.0 mm 0.90 in22.9 mm
08:34 PM 57.0°F13.9°C 53.5°F11.9°C 88% 4.0 mph S6.4 kmh S 6.0 mph9.7 kmh 29.99 in1015.6 mb 0.09 in2.3 mm 0.00 in0.0 mm 0.90 in22.9 mm
08:35 PM 57.0°F13.9°C 53.8°F12.1°C 89% 4.0 mph S6.4 kmh S 6.0 mph9.7 kmh 29.99 in1015.6 mb 0.09 in2.3 mm 0.00 in0.0 mm 0.90 in22.9 mm
08:36 PM 57.0°F13.9°C 53.8°F12.1°C 89% 4.0 mph S6.4 kmh S 6.0 mph9.7 kmh 29.99 in1015.6 mb 0.06 in1.5 mm 0.00 in0.0 mm 0.90 in22.9 mm
08:37 PM 57.0°F13.9°C 53.8°F12.1°C 89% 4.0 mph S6.4 kmh S 6.0 mph9.7 kmh 29.99 in1015.6 mb 0.06 in1.5 mm 0.00 in0.0 mm 0.90 in22.9 mm
08:38 PM 57.0°F13.9°C 53.8°F12.1°C 89% 4.0 mph S6.4 kmh S 7.0 mph11.3 kmh 29.99 in1015.6 mb 0.03 in0.8 mm 0.00 in0.0 mm 0.90 in22.9 mm
08:39 PM 57.0°F13.9°C 53.8°F12.1°C 89% 4.0 mph S6.4 kmh S 9.0 mph14.5 kmh 29.99 in1015.6 mb 0.03 in0.8 mm 0.00 in0.0 mm 0.90 in22.9 mm
08:40 PM 57.0°F13.9°C 53.8°F12.1°C 89% 4.0 mph S6.4 kmh S 9.0 mph14.5 kmh 29.99 in1015.6 mb 0.03 in0.8 mm 0.00 in0.0 mm 0.90 in22.9 mm
08:41 PM 57.0°F13.9°C 53.8°F12.1°C 89% 4.0 mph S6.4 kmh S 9.0 mph14.5 kmh 29.99 in1015.6 mb 0.02 in0.5 mm 0.00 in0.0 mm 0.90 in22.9 mm
08:42 PM 56.8°F13.8°C 53.6°F12.0°C 89% 4.0 mph S6.4 kmh S 9.0 mph14.5 kmh 29.99 in1015.6 mb 0.02 in0.5 mm 0.00 in0.0 mm 0.90 in22.9 mm
08:43 PM 56.8°F13.8°C 53.6°F12.0°C 89% 4.0 mph SSE6.4 kmh SSE 9.0 mph14.5 kmh 29.99 in1015.6 mb 0.02 in0.5 mm 0.00 in0.0 mm 0.90 in22.9 mm
08:44 PM 56.8°F13.8°C 53.6°F12.0°C 89% 4.0 mph SSE6.4 kmh SSE 9.0 mph14.5 kmh 29.99 in1015.6 mb 0.02 in0.5 mm 0.00 in0.0 mm 0.90 in22.9 mm
08:45 PM 56.8°F13.8°C 53.6°F12.0°C 89% 4.0 mph SSE6.4 kmh SSE 9.0 mph14.5 kmh 29.99 in1015.6 mb 0.02 in0.5 mm 0.00 in0.0 mm 0.90 in22.9 mm
08:46 PM 56.8°F13.8°C 53.9°F12.2°C 90% 4.0 mph S6.4 kmh S 9.0 mph14.5 kmh 29.99 in1015.6 mb 0.02 in0.5 mm 0.00 in0.0 mm 0.90 in22.9 mm
08:47 PM 56.8°F13.8°C 53.6°F12.0°C 89% 4.0 mph S6.4 kmh S 9.0 mph14.5 kmh 29.99 in1015.6 mb 0.02 in0.5 mm 0.00 in0.0 mm 0.90 in22.9 mm
08:48 PM 56.8°F13.8°C 53.6°F12.0°C 89% 4.0 mph S6.4 kmh S 9.0 mph14.5 kmh 29.99 in1015.6 mb 0.02 in0.5 mm 0.00 in0.0 mm 0.90 in22.9 mm
08:49 PM 56.8°F13.8°C 53.6°F12.0°C 89% 4.0 mph S6.4 kmh S 8.0 mph12.9 kmh 29.99 in1015.6 mb 0.01 in0.3 mm 0.00 in0.0 mm 0.90 in22.9 mm
08:50 PM 56.8°F13.8°C 53.6°F12.0°C 89% 4.0 mph S6.4 kmh S 8.0 mph12.9 kmh 29.99 in1015.6 mb 0.01 in0.3 mm 0.00 in0.0 mm 0.90 in22.9 mm
08:51 PM 56.7°F13.7°C 53.5°F11.9°C 89% 4.0 mph S6.4 kmh S 8.0 mph12.9 kmh 30.00 in1015.9 mb 0.01 in0.3 mm 0.00 in0.0 mm 0.90 in22.9 mm
08:52 PM 56.7°F13.7°C 53.5°F11.9°C 89% 4.0 mph S6.4 kmh S 8.0 mph12.9 kmh 30.00 in1015.9 mb 0.01 in0.3 mm 0.00 in0.0 mm 0.90 in22.9 mm
08:53 PM 56.7°F13.7°C 53.5°F11.9°C 89% 4.0 mph SSW6.4 kmh SSW 6.0 mph9.7 kmh 30.00 in1015.9 mb 0.01 in0.3 mm 0.00 in0.0 mm 0.90 in22.9 mm
08:54 PM 56.7°F13.7°C 53.8°F12.1°C 90% 3.0 mph SSW4.8 kmh SSW 6.0 mph9.7 kmh 30.00 in1015.9 mb 0.01 in0.3 mm 0.00 in0.0 mm 0.90 in22.9 mm
08:55 PM 56.7°F13.7°C 53.5°F11.9°C 89% 3.0 mph SSW4.8 kmh SSW 6.0 mph9.7 kmh 30.00 in1015.9 mb 0.01 in0.3 mm 0.00 in0.0 mm 0.90 in22.9 mm
08:56 PM 56.7°F13.7°C 53.5°F11.9°C 89% 3.0 mph SSW4.8 kmh SSW 6.0 mph9.7 kmh 30.00 in1015.9 mb 0.01 in0.3 mm 0.00 in0.0 mm 0.90 in22.9 mm
08:57 PM 56.7°F13.7°C 53.5°F11.9°C 89% 3.0 mph SW4.8 kmh SW 6.0 mph9.7 kmh 30.00 in1015.9 mb 0.01 in0.3 mm 0.00 in0.0 mm 0.90 in22.9 mm
08:58 PM 56.7°F13.7°C 53.5°F11.9°C 89% 3.0 mph SW4.8 kmh SW 6.0 mph9.7 kmh 30.00 in1015.9 mb 0.01 in0.3 mm 0.00 in0.0 mm 0.90 in22.9 mm
08:59 PM 56.7°F13.7°C 53.5°F11.9°C 89% 3.0 mph SW4.8 kmh SW 6.0 mph9.7 kmh 30.00 in1015.9 mb 0.00 in0.0 mm 0.00 in0.0 mm 0.90 in22.9 mm
09:00 PM 56.7°F13.7°C 53.8°F12.1°C 90% 3.0 mph SW4.8 kmh SW 6.0 mph9.7 kmh 30.00 in1015.9 mb 0.00 in0.0 mm 0.00 in0.0 mm 0.90 in22.9 mm
09:01 PM 56.7°F13.7°C 53.8°F12.1°C 90% 3.0 mph SW4.8 kmh SW 6.0 mph9.7 kmh 30.00 in1015.9 mb 0.00 in0.0 mm 0.00 in0.0 mm 0.90 in22.9 mm
09:02 PM 56.7°F13.7°C 53.8°F12.1°C 90% 3.0 mph SW4.8 kmh SW 6.0 mph9.7 kmh 30.00 in1015.9 mb 0.00 in0.0 mm 0.00 in0.0 mm 0.90 in22.9 mm
09:03 PM 56.8°F13.8°C 53.9°F12.2°C 90% 3.0 mph SW4.8 kmh SW 6.0 mph9.7 kmh 30.00 in1015.9 mb 0.00 in0.0 mm 0.00 in0.0 mm 0.90 in22.9 mm
09:04 PM 56.7°F13.7°C 53.8°F12.1°C 90% 3.0 mph SW4.8 kmh SW 6.0 mph9.7 kmh 30.00 in1015.9 mb 0.00 in0.0 mm 0.00 in0.0 mm 0.90 in22.9 mm
09:05 PM 56.7°F13.7°C 53.8°F12.1°C 90% 3.0 mph SW4.8 kmh SW 6.0 mph9.7 kmh 30.00 in1015.9 mb 0.00 in0.0 mm 0.00 in0.0 mm 0.90 in22.9 mm
09:06 PM 56.7°F13.7°C 53.8°F12.1°C 90% 3.0 mph SW4.8 kmh SW 4.0 mph6.4 kmh 30.00 in1015.9 mb 0.00 in0.0 mm 0.00 in0.0 mm 0.90 in22.9 mm
09:07 PM 56.7°F13.7°C 53.8°F12.1°C 90% 2.0 mph SW3.2 kmh SW 2.0 mph3.2 kmh 30.00 in1015.9 mb 0.00 in0.0 mm 0.00 in0.0 mm 0.90 in22.9 mm
09:08 PM 56.7°F13.7°C 53.8°F12.1°C 90% 2.0 mph SW3.2 kmh SW 2.0 mph3.2 kmh 30.00 in1015.9 mb 0.00 in0.0 mm 0.00 in0.0 mm 0.90 in22.9 mm
09:09 PM 56.7°F13.7°C 53.8°F12.1°C 90% 2.0 mph SW3.2 kmh SW 2.0 mph3.2 kmh 30.00 in1015.9 mb 0.00 in0.0 mm 0.00 in0.0 mm 0.90 in22.9 mm
09:10 PM 56.7°F13.7°C 53.8°F12.1°C 90% 1.0 mph SW1.6 kmh SW 2.0 mph3.2 kmh 30.00 in1015.9 mb 0.00 in0.0 mm 0.00 in0.0 mm 0.90 in22.9 mm
09:11 PM 56.7°F13.7°C 53.8°F12.1°C 90% 1.0 mph SW1.6 kmh SW 2.0 mph3.2 kmh 30.00 in1015.9 mb 0.00 in0.0 mm 0.00 in0.0 mm 0.90 in22.9 mm
09:12 PM 56.7°F13.7°C 53.8°F12.1°C 90% 1.0 mph SW1.6 kmh SW 2.0 mph3.2 kmh 30.01 in1016.3 mb 0.00 in0.0 mm 0.00 in0.0 mm 0.90 in22.9 mm
09:13 PM 56.7°F13.7°C 53.8°F12.1°C 90% 1.0 mph SW1.6 kmh SW 2.0 mph3.2 kmh 30.01 in1016.3 mb 0.00 in0.0 mm 0.00 in0.0 mm 0.90 in22.9 mm
09:14 PM 56.7°F13.7°C 53.8°F12.1°C 90% Calm Calm 2.0 mph3.2 kmh 30.01 in1016.3 mb 0.00 in0.0 mm 0.00 in0.0 mm 0.90 in22.9 mm
09:15 PM 56.7°F13.7°C 53.8°F12.1°C 90% Calm Calm 2.0 mph3.2 kmh 30.01 in1016.3 mb 0.00 in0.0 mm 0.00 in0.0 mm 0.90 in22.9 mm
09:16 PM 56.5°F13.6°C 53.6°F12.0°C 90% Calm Calm 2.0 mph3.2 kmh 30.01 in1016.3 mb 0.00 in0.0 mm 0.00 in0.0 mm 0.90 in22.9 mm
09:17 PM 56.5°F13.6°C 53.6°F12.0°C 90% Calm Calm 1.0 mph1.6 kmh 30.01 in1016.3 mb 0.00 in0.0 mm 0.00 in0.0 mm 0.90 in22.9 mm
09:18 PM 56.5°F13.6°C 53.6°F12.0°C 90% Calm Calm 1.0 mph1.6 kmh 30.01 in1016.3 mb 0.00 in0.0 mm 0.00 in0.0 mm 0.90 in22.9 mm
09:19 PM 56.5°F13.6°C 53.6°F12.0°C 90% Calm Calm 1.0 mph1.6 kmh 30.01 in1016.3 mb 0.00 in0.0 mm 0.00 in0.0 mm 0.90 in22.9 mm
09:20 PM 56.5°F13.6°C 53.6°F12.0°C 90% Calm Calm 1.0 mph1.6 kmh 30.01 in1016.3 mb 0.00 in0.0 mm 0.00 in0.0 mm 0.90 in22.9 mm
09:21 PM 56.5°F13.6°C 53.6°F12.0°C 90% Calm Calm 1.0 mph1.6 kmh 30.01 in1016.3 mb 0.00 in0.0 mm 0.00 in0.0 mm 0.90 in22.9 mm
09:22 PM 56.5°F13.6°C 53.6°F12.0°C 90% Calm Calm 2.0 mph3.2 kmh 30.01 in1016.3 mb 0.00 in0.0 mm 0.00 in0.0 mm 0.90 in22.9 mm
09:23 PM 56.5°F13.6°C 53.6°F12.0°C 90% Calm Calm 2.0 mph3.2 kmh 30.01 in1016.3 mb 0.00 in0.0 mm 0.00 in0.0 mm 0.90 in22.9 mm
09:24 PM 56.3°F13.5°C 53.4°F11.9°C 90% Calm Calm 2.0 mph3.2 kmh 30.01 in1016.3 mb 0.00 in0.0 mm 0.00 in0.0 mm 0.90 in22.9 mm
09:25 PM 56.3°F13.5°C 53.4°F11.9°C 90% Calm Calm 2.0 mph3.2 kmh 30.01 in1016.3 mb 0.00 in0.0 mm 0.00 in0.0 mm 0.90 in22.9 mm
09:26 PM 56.3°F13.5°C 53.4°F11.9°C 90% Calm Calm 2.0 mph3.2 kmh 30.01 in1016.3 mb 0.00 in0.0 mm 0.00 in0.0 mm 0.90 in22.9 mm
09:27 PM 56.3°F13.5°C 53.4°F11.9°C 90% Calm Calm 2.0 mph3.2 kmh 30.01 in1016.3 mb 0.00 in0.0 mm 0.00 in0.0 mm 0.90 in22.9 mm
09:28 PM 56.3°F13.5°C 53.4°F11.9°C 90% Calm Calm 3.0 mph4.8 kmh 30.01 in1016.3 mb 0.00 in0.0 mm 0.00 in0.0 mm 0.90 in22.9 mm
09:29 PM 56.1°F13.4°C 53.2°F11.8°C 90% Calm Calm 3.0 mph4.8 kmh 30.01 in1016.3 mb 0.00 in0.0 mm 0.00 in0.0 mm 0.90 in22.9 mm
09:30 PM 56.1°F13.4°C 53.2°F11.8°C 90% Calm Calm 3.0 mph4.8 kmh 30.01 in1016.3 mb 0.00 in0.0 mm 0.00 in0.0 mm 0.90 in22.9 mm
09:31 PM 56.3°F13.5°C 53.4°F11.9°C 90% Calm Calm 3.0 mph4.8 kmh 30.01 in1016.3 mb 0.00 in0.0 mm 0.00 in0.0 mm 0.90 in22.9 mm
09:32 PM 56.1°F13.4°C 53.2°F11.8°C 90% Calm Calm 3.0 mph4.8 kmh 30.01 in1016.3 mb 0.00 in0.0 mm 0.00 in0.0 mm 0.90 in22.9 mm
09:33 PM 56.1°F13.4°C 53.2°F11.8°C 90% Calm Calm 3.0 mph4.8 kmh 30.01 in1016.3 mb 0.00 in0.0 mm 0.00 in0.0 mm 0.90 in22.9 mm
09:34 PM 56.1°F13.4°C 53.2°F11.8°C 90% 1.0 mph SW1.6 kmh SW 3.0 mph4.8 kmh 30.01 in1016.3 mb 0.00 in0.0 mm 0.00 in0.0 mm 0.90 in22.9 mm
09:35 PM 56.1°F13.4°C 53.2°F11.8°C 90% 1.0 mph SW1.6 kmh SW 3.0 mph4.8 kmh 30.01 in1016.3 mb 0.00 in0.0 mm 0.00 in0.0 mm 0.90 in22.9 mm
09:36 PM 56.1°F13.4°C 53.2°F11.8°C 90% 1.0 mph SW1.6 kmh SW 3.0 mph4.8 kmh 30.01 in1016.3 mb 0.00 in0.0 mm 0.00 in0.0 mm 0.90 in22.9 mm
09:37 PM 56.1°F13.4°C 53.2°F11.8°C 90% 1.0 mph SW1.6 kmh SW 3.0 mph4.8 kmh 30.01 in1016.3 mb 0.00 in0.0 mm 0.00 in0.0 mm 0.90 in22.9 mm
09:38 PM 56.1°F13.4°C 53.2°F11.8°C 90% 1.0 mph SW1.6 kmh SW 3.0 mph4.8 kmh 30.01 in1016.3 mb 0.00 in0.0 mm 0.00 in0.0 mm 0.90 in22.9 mm
09:39 PM 56.1°F13.4°C 53.2°F11.8°C 90% 1.0 mph SW1.6 kmh SW 3.0 mph4.8 kmh 30.01 in1016.3 mb 0.00 in0.0 mm 0.00 in0.0 mm 0.90 in22.9 mm
09:40 PM 56.1°F13.4°C 53.2°F11.8°C 90% 1.0 mph SW1.6 kmh SW 3.0 mph4.8 kmh 30.01 in1016.3 mb 0.00 in0.0 mm 0.00 in0.0 mm 0.90 in22.9 mm
09:41 PM 56.1°F13.4°C 53.2°F11.8°C 90% 1.0 mph SW1.6 kmh SW 3.0 mph4.8 kmh 30.01 in1016.3 mb 0.00 in0.0 mm 0.00 in0.0 mm 0.90 in22.9 mm
09:42 PM 56.1°F13.4°C 53.2°F11.8°C 90% 1.0 mph SW1.6 kmh SW 3.0 mph4.8 kmh 30.01 in1016.3 mb 0.00 in0.0 mm 0.00 in0.0 mm 0.90 in22.9 mm
09:43 PM 56.1°F13.4°C 52.9°F11.6°C 89% 1.0 mph SW1.6 kmh SW 3.0 mph4.8 kmh 30.01 in1016.3 mb 0.00 in0.0 mm 0.00 in0.0 mm 0.90 in22.9 mm
09:44 PM 56.1°F13.4°C 52.9°F11.6°C 89% 1.0 mph SW1.6 kmh SW 3.0 mph4.8 kmh 30.01 in1016.3 mb 0.00 in0.0 mm 0.00 in0.0 mm 0.90 in22.9 mm
09:45 PM 56.1°F13.4°C 52.9°F11.6°C 89% 1.0 mph SW1.6 kmh SW 3.0 mph4.8 kmh 30.01 in1016.3 mb 0.00 in0.0 mm 0.00 in0.0 mm 0.90 in22.9 mm
09:46 PM 56.1°F13.4°C 52.9°F11.6°C 89% 1.0 mph SW1.6 kmh SW 3.0 mph4.8 kmh 30.01 in1016.3 mb 0.00 in0.0 mm 0.00 in0.0 mm 0.90 in22.9 mm
09:47 PM 56.1°F13.4°C 52.9°F11.6°C 89% 1.0 mph SW1.6 kmh SW 3.0 mph4.8 kmh 30.01 in1016.3 mb 0.00 in0.0 mm 0.00 in0.0 mm 0.90 in22.9 mm
09:48 PM 56.1°F13.4°C 52.9°F11.6°C 89% 1.0 mph SW1.6 kmh SW 3.0 mph4.8 kmh 30.02 in1016.6 mb 0.00 in0.0 mm 0.00 in0.0 mm 0.90 in22.9 mm
09:49 PM 56.1°F13.4°C 52.9°F11.6°C 89% 1.0 mph SW1.6 kmh SW 3.0 mph4.8 kmh 30.02 in1016.6 mb 0.00 in0.0 mm 0.00 in0.0 mm 0.90 in22.9 mm
09:50 PM 56.3°F13.5°C 53.1°F11.7°C 89% 1.0 mph SW1.6 kmh SW 3.0 mph4.8 kmh 30.02 in1016.6 mb 0.00 in0.0 mm 0.00 in0.0 mm 0.90 in22.9 mm
09:51 PM 56.3°F13.5°C 53.1°F11.7°C 89% 1.0 mph SW1.6 kmh SW 3.0 mph4.8 kmh 30.02 in1016.6 mb 0.00 in0.0 mm 0.00 in0.0 mm 0.90 in22.9 mm
09:52 PM 56.3°F13.5°C 53.1°F11.7°C 89% 1.0 mph SW1.6 kmh SW 3.0 mph4.8 kmh 30.02 in1016.6 mb 0.00 in0.0 mm 0.00 in0.0 mm 0.90 in22.9 mm
09:53 PM 56.3°F13.5°C 53.1°F11.7°C 89% 1.0 mph SW1.6 kmh SW 3.0 mph4.8 kmh 30.02 in1016.6 mb 0.00 in0.0 mm 0.00 in0.0 mm 0.90 in22.9 mm
09:54 PM 56.5°F13.6°C 53.3°F11.8°C 89% 1.0 mph SW1.6 kmh SW 3.0 mph4.8 kmh 30.02 in1016.6 mb 0.00 in0.0 mm 0.00 in0.0 mm 0.90 in22.9 mm
09:55 PM 56.5°F13.6°C 53.3°F11.8°C 89% 1.0 mph SW1.6 kmh SW 3.0 mph4.8 kmh 30.02 in1016.6 mb 0.00 in0.0 mm 0.00 in0.0 mm 0.90 in22.9 mm
09:56 PM 56.5°F13.6°C 53.3°F11.8°C 89% 1.0 mph SW1.6 kmh SW 3.0 mph4.8 kmh 30.02 in1016.6 mb 0.00 in0.0 mm 0.00 in0.0 mm 0.90 in22.9 mm
09:57 PM 56.5°F13.6°C 53.3°F11.8°C 89% 1.0 mph SW1.6 kmh SW 3.0 mph4.8 kmh 30.02 in1016.6 mb 0.00 in0.0 mm 0.00 in0.0 mm 0.90 in22.9 mm
09:58 PM 56.5°F13.6°C 53.3°F11.8°C 89% Calm Calm 1.0 mph1.6 kmh 30.02 in1016.6 mb 0.00 in0.0 mm 0.00 in0.0 mm 0.90 in22.9 mm
09:59 PM 56.5°F13.6°C 53.3°F11.8°C 89% Calm Calm 1.0 mph1.6 kmh 30.02 in1016.6 mb 0.00 in0.0 mm 0.00 in0.0 mm 0.90 in22.9 mm
10:00 PM 56.5°F13.6°C 53.3°F11.8°C 89% Calm Calm -- 30.02 in1016.6 mb 0.00 in0.0 mm 0.00 in0.0 mm 0.90 in22.9 mm
10:01 PM 56.5°F13.6°C 53.3°F11.8°C 89% Calm Calm -- 30.02 in1016.6 mb 0.00 in0.0 mm 0.00 in0.0 mm 0.90 in22.9 mm
10:02 PM 56.7°F13.7°C 53.5°F11.9°C 89% Calm Calm -- 30.02 in1016.6 mb 0.00 in0.0 mm 0.00 in0.0 mm 0.90 in22.9 mm
10:03 PM 56.7°F13.7°C 53.5°F11.9°C 89% Calm Calm -- 30.02 in1016.6 mb 0.00 in0.0 mm 0.00 in0.0 mm 0.90 in22.9 mm
10:04 PM 56.7°F13.7°C 53.5°F11.9°C 89% Calm Calm -- 30.02 in1016.6 mb 0.00 in0.0 mm 0.00 in0.0 mm 0.90 in22.9 mm
10:05 PM 56.7°F13.7°C 53.5°F11.9°C 89% Calm Calm 2.0 mph3.2 kmh 30.02 in1016.6 mb 0.00 in0.0 mm 0.00 in0.0 mm 0.90 in22.9 mm
10:06 PM 56.5°F13.6°C 53.3°F11.8°C 89% Calm Calm 2.0 mph3.2 kmh 30.02 in1016.6 mb 0.00 in0.0 mm 0.00 in0.0 mm 0.90 in22.9 mm
10:07 PM 56.5°F13.6°C 53.6°F12.0°C 90% Calm Calm 2.0 mph3.2 kmh 30.02 in1016.6 mb 0.00 in0.0 mm 0.00 in0.0 mm 0.90 in22.9 mm
10:08 PM 56.5°F13.6°C 53.6°F12.0°C 90% Calm Calm 2.0 mph3.2 kmh 30.02 in1016.6 mb 0.00 in0.0 mm 0.00 in0.0 mm 0.90 in22.9 mm
10:09 PM 56.5°F13.6°C 53.6°F12.0°C 90% Calm Calm 2.0 mph3.2 kmh 30.02 in1016.6 mb 0.00 in0.0 mm 0.00 in0.0 mm 0.90 in22.9 mm
10:10 PM 56.5°F13.6°C 53.6°F12.0°C 90% Calm Calm 2.0 mph3.2 kmh 30.02 in1016.6 mb 0.00 in0.0 mm 0.00 in0.0 mm 0.90 in22.9 mm
10:11 PM 56.5°F13.6°C 53.6°F12.0°C 90% Calm Calm 2.0 mph3.2 kmh 30.02 in1016.6 mb 0.00 in0.0 mm 0.00 in0.0 mm 0.90 in22.9 mm
10:12 PM 56.5°F13.6°C 53.6°F12.0°C 90% Calm Calm 2.0 mph3.2 kmh 30.02 in1016.6 mb 0.00 in0.0 mm 0.00 in0.0 mm 0.90 in22.9 mm
10:13 PM 56.5°F13.6°C 53.6°F12.0°C 90% Calm Calm 2.0 mph3.2 kmh 30.02 in1016.6 mb 0.00 in0.0 mm 0.00 in0.0 mm 0.90 in22.9 mm
10:14 PM 56.3°F13.5°C 53.4°F11.9°C 90% Calm Calm 2.0 mph3.2 kmh 30.01 in1016.3 mb 0.00 in0.0 mm 0.00 in0.0 mm 0.90 in22.9 mm
10:15 PM 56.3°F13.5°C 53.4°F11.9°C 90% Calm Calm 1.0 mph1.6 kmh 30.01 in1016.3 mb 0.00 in0.0 mm 0.00 in0.0 mm 0.90 in22.9 mm
10:16 PM 56.3°F13.5°C 53.4°F11.9°C 90% Calm Calm -- 30.01 in1016.3 mb 0.00 in0.0 mm 0.00 in0.0 mm 0.90 in22.9 mm
10:17 PM 56.3°F13.5°C 53.4°F11.9°C 90% Calm Calm -- 30.01 in1016.3 mb 0.00 in0.0 mm 0.00 in0.0 mm 0.90 in22.9 mm
10:18 PM 56.1°F13.4°C 53.2°F11.8°C 90% Calm Calm -- 30.01 in1016.3 mb 0.00 in0.0 mm 0.00 in0.0 mm 0.90 in22.9 mm
10:19 PM 56.1°F13.4°C 53.2°F11.8°C 90% Calm Calm -- 30.01 in1016.3 mb 0.00 in0.0 mm 0.00 in0.0 mm 0.90 in22.9 mm
10:20 PM 56.1°F13.4°C 53.2°F11.8°C 90% Calm Calm -- 30.01 in1016.3 mb 0.00 in0.0 mm 0.00 in0.0 mm 0.90 in22.9 mm
10:21 PM 56.1°F13.4°C 53.2°F11.8°C 90% Calm Calm -- 30.01 in1016.3 mb 0.00 in0.0 mm 0.00 in0.0 mm 0.90 in22.9 mm
10:22 PM 56.1°F13.4°C 53.2°F11.8°C 90% Calm Calm -- 30.01 in1016.3 mb 0.00 in0.0 mm 0.00 in0.0 mm 0.90 in22.9 mm
10:23 PM 56.1°F13.4°C 53.2°F11.8°C 90% Calm Calm -- 30.01 in1016.3 mb 0.00 in0.0 mm 0.00 in0.0 mm 0.90 in22.9 mm
10:24 PM 56.1°F13.4°C 53.2°F11.8°C 90% Calm Calm -- 30.01 in1016.3 mb 0.00 in0.0 mm 0.00 in0.0 mm 0.90 in22.9 mm
10:25 PM 56.1°F13.4°C 53.2°F11.8°C 90% Calm Calm -- 30.01 in1016.3 mb 0.00 in0.0 mm 0.00 in0.0 mm 0.90 in22.9 mm
10:26 PM 56.1°F13.4°C 53.2°F11.8°C 90% Calm Calm -- 30.02 in1016.6 mb 0.00 in0.0 mm 0.00 in0.0 mm 0.90 in22.9 mm
10:27 PM 56.1°F13.4°C 53.2°F11.8°C 90% Calm Calm 1.0 mph1.6 kmh 30.02 in1016.6 mb 0.00 in0.0 mm 0.00 in0.0 mm 0.90 in22.9 mm
10:28 PM 56.1°F13.4°C 53.2°F11.8°C 90% Calm Calm 1.0 mph1.6 kmh 30.02 in1016.6 mb 0.00 in0.0 mm 0.00 in0.0 mm 0.90 in22.9 mm
10:29 PM 56.1°F13.4°C 53.2°F11.8°C 90% Calm Calm 1.0 mph1.6 kmh 30.02 in1016.6 mb 0.01 in0.3 mm 0.60 in15.2 mm 0.91 in23.1 mm
10:30 PM 56.1°F13.4°C 53.2°F11.8°C 90% Calm Calm 1.0 mph1.6 kmh 30.02 in1016.6 mb 0.01 in0.3 mm 0.00 in0.0 mm 0.91 in23.1 mm
10:31 PM 56.1°F13.4°C 53.2°F11.8°C 90% Calm Calm 1.0 mph1.6 kmh 30.02 in1016.6 mb 0.01 in0.3 mm 0.00 in0.0 mm 0.91 in23.1 mm
10:32 PM 55.9°F13.3°C 53.0°F11.7°C 90% Calm Calm 1.0 mph1.6 kmh 30.02 in1016.6 mb 0.01 in0.3 mm 0.00 in0.0 mm 0.91 in23.1 mm
10:33 PM 55.9°F13.3°C 53.0°F11.7°C 90% Calm Calm 1.0 mph1.6 kmh 30.01 in1016.3 mb 0.01 in0.3 mm 0.00 in0.0 mm 0.91 in23.1 mm
10:34 PM 55.9°F13.3°C 53.0°F11.7°C 90% Calm Calm 1.0 mph1.6 kmh 30.01 in1016.3 mb 0.01 in0.3 mm 0.00 in0.0 mm 0.91 in23.1 mm
10:35 PM 55.9°F13.3°C 53.0°F11.7°C 90% Calm Calm 1.0 mph1.6 kmh 30.01 in1016.3 mb 0.01 in0.3 mm 0.00 in0.0 mm 0.91 in23.1 mm
10:36 PM 55.9°F13.3°C 53.0°F11.7°C 90% Calm Calm 1.0 mph1.6 kmh 30.01 in1016.3 mb 0.01 in0.3 mm 0.00 in0.0 mm 0.91 in23.1 mm
10:37 PM 55.9°F13.3°C 53.0°F11.7°C 90% Calm Calm 1.0 mph1.6 kmh 30.01 in1016.3 mb 0.01 in0.3 mm 0.00 in0.0 mm 0.91 in23.1 mm
10:38 PM 55.9°F13.3°C 53.0°F11.7°C 90% Calm Calm 1.0 mph1.6 kmh 30.01 in1016.3 mb 0.01 in0.3 mm 0.00 in0.0 mm 0.91 in23.1 mm
10:39 PM 55.9°F13.3°C 53.0°F11.7°C 90% Calm Calm 1.0 mph1.6 kmh 30.01 in1016.3 mb 0.01 in0.3 mm 0.00 in0.0 mm 0.91 in23.1 mm
10:40 PM 55.9°F13.3°C 53.0°F11.7°C 90% Calm Calm -- 30.01 in1016.3 mb 0.01 in0.3 mm 0.00 in0.0 mm 0.91 in23.1 mm
10:41 PM 55.9°F13.3°C 53.4°F11.9°C 91% Calm Calm -- 30.01 in1016.3 mb 0.01 in0.3 mm 0.00 in0.0 mm 0.91 in23.1 mm
10:42 PM 55.9°F13.3°C 53.0°F11.7°C 90% Calm Calm -- 30.01 in1016.3 mb 0.01 in0.3 mm 0.00 in0.0 mm 0.91 in23.1 mm
10:43 PM 55.9°F13.3°C 53.0°F11.7°C 90% Calm Calm -- 30.01 in1016.3 mb 0.01 in0.3 mm 0.00 in0.0 mm 0.91 in23.1 mm
10:44 PM 55.9°F13.3°C 53.0°F11.7°C 90% Calm Calm -- 30.01 in1016.3 mb 0.01 in0.3 mm 0.00 in0.0 mm 0.91 in23.1 mm
10:45 PM 55.9°F13.3°C 53.0°F11.7°C 90% Calm Calm -- 30.01 in1016.3 mb 0.01 in0.3 mm 0.00 in0.0 mm 0.91 in23.1 mm
10:46 PM 55.9°F13.3°C 53.4°F11.9°C 91% Calm Calm -- 30.01 in1016.3 mb 0.01 in0.3 mm 0.00 in0.0 mm 0.91 in23.1 mm
10:47 PM 55.9°F13.3°C 53.4°F11.9°C 91% Calm Calm -- 30.01 in1016.3 mb 0.01 in0.3 mm 0.00 in0.0 mm 0.91 in23.1 mm
10:48 PM 55.9°F13.3°C 53.4°F11.9°C 91% Calm Calm -- 30.01 in1016.3 mb 0.01 in0.3 mm 0.00 in0.0 mm 0.91 in23.1 mm
10:49 PM 55.9°F13.3°C 53.4°F11.9°C 91% Calm Calm -- 30.01 in1016.3 mb 0.01 in0.3 mm 0.00 in0.0 mm 0.91 in23.1 mm
10:50 PM 55.9°F13.3°C 53.4°F11.9°C 91% Calm Calm -- 30.01 in1016.3 mb 0.01 in0.3 mm 0.00 in0.0 mm 0.91 in23.1 mm